Observation data for Guadalupe Mtns Park on 01/10/2018      Previous  Date  Next       Current Mesonet Observations  Soil Data  Daily Summary Page  Observations in Plain Language
KGU1 100600Z 28012G17KT 16/M03 A2998 RMK A01 T01591027  RH  028%=      5-min Rain = 0
KGU1 100601Z 26017G22KT 16/M03 A2998 RMK A01 T01591026  RH  028%=      5-min Rain = 0
KGU1 100602Z 25012G18KT 16/M03 A2998 RMK A01 T01591026  RH  028%=      5-min Rain = 0
KGU1 100603Z 26009KT 16/M03 A2998 RMK A01 T01581026  RH  028%=      5-min Rain = 0
KGU1 100604Z 27010KT 16/M03 A2998 RMK A01 T01571026  RH  029%=      5-min Rain = 0
KGU1 100605Z 26012KT 16/M03 A2998 RMK A01 T01571026  RH  029%=      5-min Rain = 0
KGU1 100606Z 25013KT 16/M03 A2998 RMK A01 T01571027  RH  028%=      5-min Rain = 0
KGU1 100607Z 25013KT 16/M03 A2998 RMK A01 T01581027  RH  028%=      5-min Rain = 0
KGU1 100608Z 25011KT 16/M03 A2998 RMK A01 T01581027  RH  028%=      5-min Rain = 0
KGU1 100609Z 26011KT 16/M03 A2998 RMK A01 T01581028  RH  028%=      5-min Rain = 0
KGU1 100610Z 27012KT 16/M03 A2998 RMK A01 T01571029  RH  028%=      5-min Rain = 0
KGU1 100611Z 26012KT 16/M03 A2998 RMK A01 T01571030  RH  028%=      5-min Rain = 0
KGU1 100612Z 25010KT 16/M03 A2998 RMK A01 T01571030  RH  028%=      5-min Rain = 0
KGU1 100613Z 25010KT 16/M03 A2998 RMK A01 T01561029  RH  028%=      5-min Rain = 0
KGU1 100614Z 25010KT 16/M03 A2998 RMK A01 T01561028  RH  028%=      5-min Rain = 0
KGU1 100615Z 25009KT 16/M03 A2998 RMK A01 T01551029  RH  028%=      5-min Rain = 0
KGU1 100616Z 27010G15KT 15/M03 A2998 RMK A01 T01541029  RH  028%=      5-min Rain = 0
KGU1 100617Z 27013KT 15/M03 A2998 RMK A01 T01541029  RH  028%=      5-min Rain = 0
KGU1 100618Z 27012KT 16/M03 A2998 RMK A01 T01551029  RH  028%=      5-min Rain = 0
KGU1 100619Z 26014KT 16/M03 A2998 RMK A01 T01551032  RH  028%=      5-min Rain = 0
KGU1 100620Z 26013KT 16/M03 A2998 RMK A01 T01571032  RH  028%=      5-min Rain = 0
KGU1 100621Z 27011KT 16/M03 A2997 RMK A01 T01581032  RH  027%=      5-min Rain = 0
KGU1 100622Z 27012KT 16/M03 A2997 RMK A01 T01581033  RH  027%=      5-min Rain = 0
KGU1 100623Z 26011KT 16/M03 A2997 RMK A01 T01571033  RH  027%=      5-min Rain = 0
KGU1 100624Z 26009KT 16/M03 A2997 RMK A01 T01571033  RH  027%=      5-min Rain = 0
KGU1 100625Z 25010KT 16/M03 A2997 RMK A01 T01561034  RH  027%=      5-min Rain = 0
KGU1 100626Z 25011KT 16/M04 A2997 RMK A01 T01571035  RH  027%=      5-min Rain = 0
KGU1 100627Z 25013G18KT 16/M03 A2997 RMK A01 T01571034  RH  027%=      5-min Rain = 0
KGU1 100628Z 24012KT 16/M03 A2996 RMK A01 T01591033  RH  027%=      5-min Rain = 0
KGU1 100629Z 25012KT 16/M03 A2996 RMK A01 T01601034  RH  026%=      5-min Rain = 0
KGU1 100630Z 25010KT 16/M04 A2996 RMK A01 T01611035  RH  026%=      5-min Rain = 0
KGU1 100631Z 25008KT 16/M04 A2996 RMK A01 T01601036  RH  026%=      5-min Rain = 0
KGU1 100632Z 25008KT 16/M04 A2996 RMK A01 T01601037  RH  026%=      5-min Rain = 0
KGU1 100633Z 26010KT 16/M04 A2996 RMK A01 T01591038  RH  026%=      5-min Rain = 0
KGU1 100634Z 27012KT 16/M04 A2996 RMK A01 T01581038  RH  026%=      5-min Rain = 0
KGU1 100635Z 26009KT 16/M04 A2996 RMK A01 T01581037  RH  026%=      5-min Rain = 0
KGU1 100636Z 26008G13KT 16/M04 A2996 RMK A01 T01581038  RH  026%=      5-min Rain = 0
KGU1 100637Z 26012KT 16/M04 A2996 RMK A01 T01581039  RH  026%=      5-min Rain = 0
KGU1 100638Z 26011KT 16/M04 A2996 RMK A01 T01591040  RH  025%=      5-min Rain = 0
KGU1 100639Z 25010KT 16/M04 A2996 RMK A01 T01601041  RH  025%=      5-min Rain = 0
KGU1 100640Z 26011KT 16/M04 A2996 RMK A01 T01601042  RH  025%=      5-min Rain = 0
KGU1 100641Z 25009KT 16/M04 A2996 RMK A01 T01621042  RH  025%=      5-min Rain = 0
KGU1 100642Z 26009KT 16/M04 A2996 RMK A01 T01621042  RH  025%=      5-min Rain = 0
KGU1 100643Z 27012KT 16/M04 A2996 RMK A01 T01611040  RH  025%=      5-min Rain = 0
KGU1 100644Z 26012KT 16/M04 A2996 RMK A01 T01621041  RH  025%=      5-min Rain = 0
KGU1 100645Z 25013KT 16/M04 A2996 RMK A01 T01621040  RH  025%=      5-min Rain = 0
KGU1 100646Z 26015KT 16/M04 A2995 RMK A01 T01641038  RH  025%=      5-min Rain = 0
KGU1 100647Z 24013G18KT 17/M04 A2995 RMK A01 T01661038  RH  025%=      5-min Rain = 0
KGU1 100648Z 26010G15KT 17/M04 A2995 RMK A01 T01661040  RH  024%=      5-min Rain = 0
KGU1 100649Z 25011KT 17/M04 A2995 RMK A01 T01661038  RH  025%=      5-min Rain = 0
KGU1 100650Z 24010KT 17/M04 A2995 RMK A01 T01661037  RH  025%=      5-min Rain = 0
KGU1 100651Z 25011KT 17/M04 A2995 RMK A01 T01651037  RH  025%=      5-min Rain = 0
KGU1 100652Z 24010KT 17/M04 A2995 RMK A01 T01651039  RH  025%=      5-min Rain = 0
KGU1 100653Z 25012KT 17/M04 A2995 RMK A01 T01651040  RH  024%=      5-min Rain = 0
KGU1 100654Z 26009KT 17/M04 A2995 RMK A01 T01651041  RH  024%=      5-min Rain = 0
KGU1 100655Z 24007KT 16/M04 A2995 RMK A01 T01641041  RH  025%=      5-min Rain = 0
KGU1 100656Z 24008KT 16/M04 A2995 RMK A01 T01631041  RH  025%=      5-min Rain = 0
KGU1 100657Z 24007KT 16/M04 A2995 RMK A01 T01621041  RH  025%=      5-min Rain = 0
KGU1 100658Z 25009KT 16/M04 A2995 RMK A01 T01611043  RH  025%=      5-min Rain = 0
KGU1 100659Z 24009KT 16/M04 A2995 RMK A01 T01611043  RH  024%=      5-min Rain = 0
KGU1 100700Z 22007KT 16/M04 A2995 RMK A01 T01611040  RH  025%=      5-min Rain = 0
KGU1 100701Z 21010KT 16/M03 A2995 RMK A01 T01601030  RH  027%=      5-min Rain = 0
KGU1 100702Z 22009KT 16/M03 A2995 RMK A01 T01551027  RH  029%=      5-min Rain = 0
KGU1 100703Z 22010KT 15/M03 A2995 RMK A01 T01511026  RH  030%=      5-min Rain = 0
KGU1 100704Z 22009KT 15/M03 A2995 RMK A01 T01471026  RH  030%=      5-min Rain = 0
KGU1 100705Z 22011KT 15/M03 A2995 RMK A01 T01451026  RH  031%=      5-min Rain = 0
KGU1 100706Z 21012KT 14/M03 A2995 RMK A01 T01421026  RH  032%=      5-min Rain = 0
KGU1 100707Z 21011KT 14/M03 A2995 RMK A01 T01401026  RH  032%=      5-min Rain = 0
KGU1 100708Z 21012KT 14/M03 A2995 RMK A01 T01391026  RH  032%=      5-min Rain = 0
KGU1 100709Z 21012KT 14/M03 A2995 RMK A01 T01361025  RH  033%=      5-min Rain = 0
KGU1 100710Z 21012KT 14/M03 A2995 RMK A01 T01351025  RH  033%=      5-min Rain = 0
KGU1 100711Z 21012KT 13/M03 A2995 RMK A01 T01331025  RH  034%=      5-min Rain = 0
KGU1 100712Z 21014KT 13/M02 A2995 RMK A01 T01321024  RH  034%=      5-min Rain = 0
KGU1 100713Z 22011KT 13/M02 A2995 RMK A01 T01301024  RH  035%=      5-min Rain = 0
KGU1 100714Z 21013KT 13/M02 A2995 RMK A01 T01291024  RH  035%=      5-min Rain = 0
KGU1 100715Z 22010KT 13/M02 A2995 RMK A01 T01301024  RH  035%=      5-min Rain = 0
KGU1 100716Z 23010KT 13/M02 A2995 RMK A01 T01301024  RH  035%=      5-min Rain = 0
KGU1 100717Z 23009G14KT 13/M03 A2995 RMK A01 T01301025  RH  034%=      5-min Rain = 0
KGU1 100718Z 23009KT 13/M03 A2995 RMK A01 T01321027  RH  034%=      5-min Rain = 0
KGU1 100719Z 22011G16KT 13/M03 A2995 RMK A01 T01341027  RH  033%=      5-min Rain = 0
KGU1 100720Z 22011KT 14/M03 A2995 RMK A01 T01371028  RH  032%=      5-min Rain = 0
KGU1 100721Z 22010KT 14/M03 A2995 RMK A01 T01401028  RH  032%=      5-min Rain = 0
KGU1 100722Z 23016KT 14/M03 A2995 RMK A01 T01441026  RH  031%=      5-min Rain = 0
KGU1 100723Z 24014G20KT 15/M03 A2994 RMK A01 T01491026  RH  030%=      5-min Rain = 0
KGU1 100724Z 24014KT 15/M03 A2995 RMK A01 T01521026  RH  029%=      5-min Rain = 0
KGU1 100725Z 24012KT 15/M03 A2994 RMK A01 T01541026  RH  029%=      5-min Rain = 0
KGU1 100726Z 24012KT 16/M03 A2994 RMK A01 T01561026  RH  029%=      5-min Rain = 0
KGU1 100727Z 25015KT 16/M03 A2994 RMK A01 T01571027  RH  029%=      5-min Rain = 0
KGU1 100728Z 23012KT 16/M03 A2994 RMK A01 T01581026  RH  028%=      5-min Rain = 0
KGU1 100729Z 23010KT 16/M03 A2995 RMK A01 T01591026  RH  028%=      5-min Rain = 0
KGU1 100730Z 23012G17KT 16/M03 A2995 RMK A01 T01581025  RH  028%=      5-min Rain = 0
KGU1 100731Z 25012KT 16/M03 A2995 RMK A01 T01581027  RH  028%=      5-min Rain = 0
KGU1 100732Z 25013KT 16/M03 A2995 RMK A01 T01591029  RH  028%=      5-min Rain = 0
KGU1 100733Z 24016KT 16/M03 A2994 RMK A01 T01601027  RH  028%=      5-min Rain = 0
KGU1 100734Z 23010G15KT 16/M03 A2995 RMK A01 T01611027  RH  028%=      5-min Rain = 0
KGU1 100735Z 22010G15KT 16/M03 A2995 RMK A01 T01601026  RH  028%=      5-min Rain = 0
KGU1 100736Z 23014KT 16/M03 A2994 RMK A01 T01591025  RH  029%=      5-min Rain = 0
KGU1 100737Z 24012KT 16/M03 A2994 RMK A01 T01591025  RH  028%=      5-min Rain = 0
KGU1 100738Z 24013KT 16/M03 A2994 RMK A01 T01591025  RH  029%=      5-min Rain = 0
KGU1 100739Z 23011KT 16/M03 A2994 RMK A01 T01591025  RH  029%=      5-min Rain = 0
KGU1 100740Z 23009KT 16/M02 A2994 RMK A01 T01571024  RH  029%=      5-min Rain = 0
KGU1 100741Z 23011KT 16/M02 A2994 RMK A01 T01551024  RH  029%=      5-min Rain = 0
KGU1 100742Z 25011KT 16/M03 A2994 RMK A01 T01551026  RH  029%=      5-min Rain = 0
KGU1 100743Z 22008KT 16/M03 A2994 RMK A01 T01561025  RH  029%=      5-min Rain = 0
KGU1 100744Z 23009KT 16/M03 A2994 RMK A01 T01551025  RH  029%=      5-min Rain = 0
KGU1 100745Z 24010KT 16/M03 A2994 RMK A01 T01551025  RH  029%=      5-min Rain = 0
KGU1 100746Z 24014KT 16/M03 A2994 RMK A01 T01551025  RH  029%=      5-min Rain = 0
KGU1 100747Z 23014G19KT 16/M03 A2994 RMK A01 T01561025  RH  029%=      5-min Rain = 0
KGU1 100748Z 24014G19KT 16/M03 A2994 RMK A01 T01571026  RH  029%=      5-min Rain = 0
KGU1 100749Z 24013KT 16/M03 A2994 RMK A01 T01591026  RH  028%=      5-min Rain = 0
KGU1 100750Z 24013KT 16/M03 A2994 RMK A01 T01591026  RH  028%=      5-min Rain = 0
KGU1 100751Z 23009KT 16/M03 A2994 RMK A01 T01591025  RH  028%=      5-min Rain = 0
KGU1 100752Z 24010KT 16/M03 A2993 RMK A01 T01581025  RH  029%=      5-min Rain = 0
KGU1 100753Z 24013KT 16/M03 A2993 RMK A01 T01581026  RH  029%=      5-min Rain = 0
KGU1 100754Z 24011KT 16/M03 A2993 RMK A01 T01581026  RH  028%=      5-min Rain = 0
KGU1 100755Z 24012KT 16/M03 A2993 RMK A01 T01581026  RH  028%=      5-min Rain = 0
KGU1 100756Z 24014KT 16/M03 A2993 RMK A01 T01591026  RH  028%=      5-min Rain = 0
KGU1 100757Z 24013KT 16/M03 A2993 RMK A01 T01591026  RH  028%=      5-min Rain = 0
KGU1 100758Z 23014KT 16/M03 A2993 RMK A01 T01591026  RH  028%=      5-min Rain = 0
KGU1 100759Z 22013G20KT 16/M03 A2993 RMK A01 T01591026  RH  028%=      5-min Rain = 0
KGU1 100800Z 23013KT 16/M03 A2993 RMK A01 T01591026  RH  028%=      5-min Rain = 0
KGU1 100801Z 24014KT 16/M03 A2993 RMK A01 T01591026  RH  028%=      5-min Rain = 0
KGU1 100802Z 24012KT 16/M03 A2993 RMK A01 T01591027  RH  028%=      5-min Rain = 0
KGU1 100803Z 24012KT 16/M03 A2993 RMK A01 T01591027  RH  028%=      5-min Rain = 0
KGU1 100804Z 24013KT 16/M03 A2993 RMK A01 T01591027  RH  028%=      5-min Rain = 0
KGU1 100805Z 24012G17KT 16/M03 A2993 RMK A01 T01591028  RH  028%=      5-min Rain = 0
KGU1 100806Z 24015G20KT 16/M03 A2993 RMK A01 T01591029  RH  028%=      5-min Rain = 0
KGU1 100807Z 24015G20KT 16/M03 A2993 RMK A01 T01601029  RH  027%=      5-min Rain = 0
KGU1 100808Z 24011KT 16/M03 A2993 RMK A01 T01601029  RH  027%=      5-min Rain = 0
KGU1 100809Z 25012KT 16/M03 A2993 RMK A01 T01601029  RH  027%=      5-min Rain = 0
KGU1 100810Z 24013G18KT 16/M03 A2993 RMK A01 T01601029  RH  027%=      5-min Rain = 0
KGU1 100811Z 23010G15KT 16/M03 A2993 RMK A01 T01611029  RH  027%=      5-min Rain = 0
KGU1 100812Z 23011KT 16/M03 A2993 RMK A01 T01601028  RH  028%=      5-min Rain = 0
KGU1 100813Z 23010KT 16/M03 A2993 RMK A01 T01591028  RH  028%=      5-min Rain = 0
KGU1 100814Z 23012KT 16/M03 A2993 RMK A01 T01591029  RH  028%=      5-min Rain = 0
KGU1 100815Z 24011KT 16/M03 A2993 RMK A01 T01591029  RH  028%=      5-min Rain = 0
KGU1 100816Z 24013KT 16/M03 A2992 RMK A01 T01591029  RH  028%=      5-min Rain = 0
KGU1 100817Z 23011KT 16/M03 A2992 RMK A01 T01591029  RH  028%=      5-min Rain = 0
KGU1 100818Z 23008KT 16/M03 A2993 RMK A01 T01591029  RH  028%=      5-min Rain = 0
KGU1 100819Z 23010G15KT 16/M03 A2993 RMK A01 T01581029  RH  028%=      5-min Rain = 0
KGU1 100820Z 24013KT 16/M03 A2992 RMK A01 T01581029  RH  028%=      5-min Rain = 0
KGU1 100821Z 24013KT 16/M03 A2992 RMK A01 T01581030  RH  028%=      5-min Rain = 0
KGU1 100822Z 24012KT 16/M03 A2992 RMK A01 T01591030  RH  027%=      5-min Rain = 0
KGU1 100823Z 23010KT 16/M03 A2992 RMK A01 T01591029  RH  028%=      5-min Rain = 0
KGU1 100824Z 24010KT 16/M03 A2992 RMK A01 T01581030  RH  028%=      5-min Rain = 0
KGU1 100825Z 24010KT 16/M03 A2992 RMK A01 T01581030  RH  028%=      5-min Rain = 0
KGU1 100826Z 24011KT 16/M03 A2992 RMK A01 T01571030  RH  028%=      5-min Rain = 0
KGU1 100827Z 24009KT 16/M03 A2992 RMK A01 T01581030  RH  028%=      5-min Rain = 0
KGU1 100828Z 23009KT 16/M03 A2992 RMK A01 T01571030  RH  028%=      5-min Rain = 0
KGU1 100829Z 23011G17KT 16/M03 A2992 RMK A01 T01561030  RH  028%=      5-min Rain = 0
KGU1 100830Z 23012G17KT 16/M03 A2992 RMK A01 T01571030  RH  028%=      5-min Rain = 0
KGU1 100831Z 23011KT 16/M03 A2992 RMK A01 T01571030  RH  028%=      5-min Rain = 0
KGU1 100832Z 22011KT 16/M03 A2992 RMK A01 T01571030  RH  028%=      5-min Rain = 0
KGU1 100833Z 23010KT 16/M03 A2992 RMK A01 T01561030  RH  028%=      5-min Rain = 0
KGU1 100834Z 23011KT 16/M03 A2992 RMK A01 T01571030  RH  028%=      5-min Rain = 0
KGU1 100835Z 24011KT 16/M03 A2992 RMK A01 T01571030  RH  028%=      5-min Rain = 0
KGU1 100836Z 24010KT 16/M03 A2992 RMK A01 T01571030  RH  028%=      5-min Rain = 0
KGU1 100837Z 23008KT 16/M03 A2992 RMK A01 T01561029  RH  028%=      5-min Rain = 0
KGU1 100838Z 24013KT 16/M03 A2992 RMK A01 T01551029  RH  028%=      5-min Rain = 0
KGU1 100839Z 24015KT 16/M03 A2992 RMK A01 T01551029  RH  028%=      5-min Rain = 0
KGU1 100840Z 23012KT 16/M03 A2992 RMK A01 T01561029  RH  028%=      5-min Rain = 0
KGU1 100841Z 24015KT 16/M03 A2992 RMK A01 T01561030  RH  028%=      5-min Rain = 0
KGU1 100842Z 24013G18KT 16/M03 A2992 RMK A01 T01561030  RH  028%=      5-min Rain = 0
KGU1 100843Z 24012KT 16/M03 A2992 RMK A01 T01571030  RH  028%=      5-min Rain = 0
KGU1 100844Z 22013KT 16/M03 A2992 RMK A01 T01561029  RH  028%=      5-min Rain = 0
KGU1 100845Z 23012KT 16/M03 A2992 RMK A01 T01561029  RH  028%=      5-min Rain = 0
KGU1 100846Z 23013G18KT 16/M03 A2992 RMK A01 T01551030  RH  028%=      5-min Rain = 0
KGU1 100847Z 23012KT 16/M03 A2992 RMK A01 T01561030  RH  028%=      5-min Rain = 0
KGU1 100848Z 24010KT 16/M03 A2992 RMK A01 T01561031  RH  028%=      5-min Rain = 0
KGU1 100849Z 23010KT 16/M03 A2992 RMK A01 T01561030  RH  028%=      5-min Rain = 0
KGU1 100850Z 22012G18KT 16/M03 A2992 RMK A01 T01551030  RH  028%=      5-min Rain = 0
KGU1 100851Z 23012KT 16/M03 A2992 RMK A01 T01551031  RH  028%=      5-min Rain = 0
KGU1 100852Z 23012KT 16/M03 A2992 RMK A01 T01561030  RH  028%=      5-min Rain = 0
KGU1 100853Z 24010G15KT 16/M03 A2991 RMK A01 T01551030  RH  028%=      5-min Rain = 0
KGU1 100854Z 23013KT 16/M03 A2991 RMK A01 T01551029  RH  028%=      5-min Rain = 0
KGU1 100855Z 23014G20KT 16/M03 A2991 RMK A01 T01551029  RH  028%=      5-min Rain = 0
KGU1 100856Z 24013KT 16/M03 A2991 RMK A01 T01551031  RH  028%=      5-min Rain = 0
KGU1 100857Z 24012KT 16/M03 A2991 RMK A01 T01561031  RH  028%=      5-min Rain = 0
KGU1 100858Z 24016KT 16/M03 A2991 RMK A01 T01561030  RH  028%=      5-min Rain = 0
KGU1 100859Z 23011G17KT 16/M03 A2991 RMK A01 T01561030  RH  028%=      5-min Rain = 0
KGU1 100900Z 23011G16KT 16/M03 A2991 RMK A01 T01561030  RH  028%=      5-min Rain = 0
KGU1 100901Z 23013KT 16/M03 A2991 RMK A01 T01551030  RH  028%=      5-min Rain = 0
KGU1 100902Z 25013G19KT 16/M03 A2991 RMK A01 T01561032  RH  028%=      5-min Rain = 0
KGU1 100903Z 25015KT 16/M03 A2991 RMK A01 T01571031  RH  028%=      5-min Rain = 0
KGU1 100904Z 25011G16KT 16/M03 A2991 RMK A01 T01571030  RH  028%=      5-min Rain = 0
KGU1 100905Z 24011KT 16/M03 A2991 RMK A01 T01571030  RH  028%=      5-min Rain = 0
KGU1 100906Z 23014KT 16/M03 A2991 RMK A01 T01561030  RH  028%=      5-min Rain = 0
KGU1 100907Z 24012G17KT 16/M03 A2991 RMK A01 T01561030  RH  028%=      5-min Rain = 0
KGU1 100908Z 24012KT 16/M03 A2991 RMK A01 T01561030  RH  028%=      5-min Rain = 0
KGU1 100909Z 24014KT 16/M03 A2991 RMK A01 T01561030  RH  028%=      5-min Rain = 0
KGU1 100910Z 24015G20KT 16/M03 A2992 RMK A01 T01571030  RH  028%=      5-min Rain = 0
KGU1 100911Z 24018G23KT 16/M03 A2991 RMK A01 T01571030  RH  028%=      5-min Rain = 0
KGU1 100912Z 24015KT 16/M03 A2992 RMK A01 T01581030  RH  028%=      5-min Rain = 0
KGU1 100913Z 24016KT 16/M03 A2991 RMK A01 T01581031  RH  027%=      5-min Rain = 0
KGU1 100914Z 25013KT 16/M03 A2992 RMK A01 T01581032  RH  027%=      5-min Rain = 0
KGU1 100915Z 23010KT 16/M03 A2992 RMK A01 T01591032  RH  027%=      5-min Rain = 0
KGU1 100916Z 24013KT 16/M03 A2991 RMK A01 T01591030  RH  027%=      5-min Rain = 0
KGU1 100917Z 23012G19KT 16/M03 A2991 RMK A01 T01581031  RH  027%=      5-min Rain = 0
KGU1 100918Z 25011KT 16/M03 A2991 RMK A01 T01581033  RH  027%=      5-min Rain = 0
KGU1 100919Z 24011KT 16/M03 A2991 RMK A01 T01581033  RH  027%=      5-min Rain = 0
KGU1 100920Z 25011KT 16/M03 A2991 RMK A01 T01581031  RH  027%=      5-min Rain = 0
KGU1 100921Z 25014G19KT 16/M03 A2991 RMK A01 T01571030  RH  028%=      5-min Rain = 0
KGU1 100922Z 24012G18KT 16/M03 A2991 RMK A01 T01571030  RH  028%=      5-min Rain = 0
KGU1 100923Z 24016KT 16/M03 A2991 RMK A01 T01571029  RH  028%=      5-min Rain = 0
KGU1 100924Z 24015KT 16/M03 A2991 RMK A01 T01571029  RH  028%=      5-min Rain = 0
KGU1 100925Z 24013KT 16/M03 A2991 RMK A01 T01571030  RH  028%=      5-min Rain = 0
KGU1 100926Z 28013KT 16/M03 A2991 RMK A01 T01561031  RH  028%=      5-min Rain = 0
KGU1 100927Z 25013G18KT 16/M03 A2991 RMK A01 T01561031  RH  028%=      5-min Rain = 0
KGU1 100928Z 25011KT 16/M03 A2991 RMK A01 T01561031  RH  028%=      5-min Rain = 0
KGU1 100929Z 24009KT 16/M03 A2991 RMK A01 T01561031  RH  028%=      5-min Rain = 0
KGU1 100930Z 24012KT 16/M03 A2991 RMK A01 T01561030  RH  028%=      5-min Rain = 0
KGU1 100931Z 23011KT 16/M03 A2991 RMK A01 T01551029  RH  028%=      5-min Rain = 0
KGU1 100932Z 23012G17KT 15/M03 A2991 RMK A01 T01541029  RH  029%=      5-min Rain = 0
KGU1 100933Z 26011G16KT 15/M03 A2991 RMK A01 T01541029  RH  028%=      5-min Rain = 0
KGU1 100934Z 26010KT 15/M03 A2991 RMK A01 T01541030  RH  028%=      5-min Rain = 0
KGU1 100935Z 27013KT 15/M03 A2991 RMK A01 T01531031  RH  028%=      5-min Rain = 0
KGU1 100936Z 25011KT 15/M03 A2991 RMK A01 T01531031  RH  028%=      5-min Rain = 0
KGU1 100937Z 26011KT 15/M03 A2991 RMK A01 T01541031  RH  028%=      5-min Rain = 0
KGU1 100938Z 26010KT 15/M03 A2991 RMK A01 T01541030  RH  028%=      5-min Rain = 0
KGU1 100939Z 25015G20KT 15/M03 A2991 RMK A01 T01541030  RH  028%=      5-min Rain = 0
KGU1 100940Z 26012G18KT 16/M03 A2991 RMK A01 T01551030  RH  028%=      5-min Rain = 0
KGU1 100941Z 25011KT 16/M03 A2991 RMK A01 T01551030  RH  028%=      5-min Rain = 0
KGU1 100942Z 29014G19KT 16/M03 A2991 RMK A01 T01551030  RH  028%=      5-min Rain = 0
KGU1 100943Z 26016G21KT 16/M03 A2991 RMK A01 T01551030  RH  028%=      5-min Rain = 0
KGU1 100944Z 24012KT 16/M03 A2991 RMK A01 T01561030  RH  028%=      5-min Rain = 0
KGU1 100945Z 25012KT 16/M03 A2991 RMK A01 T01551030  RH  028%=      5-min Rain = 0
KGU1 100946Z 26009G14KT 16/M03 A2991 RMK A01 T01551029  RH  028%=      5-min Rain = 0
KGU1 100947Z 26008KT 15/M03 A2991 RMK A01 T01531029  RH  029%=      5-min Rain = 0
KGU1 100948Z 26014KT 15/M03 A2991 RMK A01 T01531029  RH  029%=      5-min Rain = 0
KGU1 100949Z 26014KT 15/M03 A2991 RMK A01 T01541030  RH  028%=      5-min Rain = 0
KGU1 100950Z 26011KT 15/M03 A2991 RMK A01 T01541029  RH  028%=      5-min Rain = 0
KGU1 100951Z 25009KT 15/M03 A2991 RMK A01 T01531029  RH  029%=      5-min Rain = 0
KGU1 100952Z 26008KT 15/M03 A2991 RMK A01 T01531029  RH  029%=      5-min Rain = 0
KGU1 100953Z 27009KT 15/M03 A2991 RMK A01 T01521029  RH  029%=      5-min Rain = 0
KGU1 100954Z 27010KT 15/M03 A2991 RMK A01 T01511029  RH  029%=      5-min Rain = 0
KGU1 100955Z 26011KT 15/M03 A2991 RMK A01 T01501028  RH  029%=      5-min Rain = 0
KGU1 100956Z 27011KT 15/M03 A2991 RMK A01 T01501028  RH  029%=      5-min Rain = 0
KGU1 100957Z 26015KT 15/M03 A2991 RMK A01 T01501028  RH  029%=      5-min Rain = 0
KGU1 100958Z 27014KT 15/M03 A2991 RMK A01 T01501028  RH  029%=      5-min Rain = 0
KGU1 100959Z 26012KT 15/M03 A2991 RMK A01 T01501028  RH  029%=      5-min Rain = 0
KGU1 101000Z 27011KT 15/M03 A2991 RMK A01 T01501028  RH  029%=      5-min Rain = 0
KGU1 101001Z 27011KT 15/M03 A2991 RMK A01 T01501028  RH  030%=      5-min Rain = 0
KGU1 101002Z 27010KT 15/M03 A2991 RMK A01 T01491028  RH  030%=      5-min Rain = 0
KGU1 101003Z 27012KT 15/M03 A2991 RMK A01 T01471028  RH  030%=      5-min Rain = 0
KGU1 101004Z 26012KT 15/M03 A2991 RMK A01 T01461029  RH  030%=      5-min Rain = 0
KGU1 101005Z 26012KT 15/M03 A2991 RMK A01 T01471029  RH  030%=      5-min Rain = 0
KGU1 101006Z 27012KT 15/M03 A2991 RMK A01 T01471029  RH  030%=      5-min Rain = 0
KGU1 101007Z 26009KT 15/M03 A2991 RMK A01 T01461028  RH  030%=      5-min Rain = 0
KGU1 101008Z 27010KT 15/M03 A2991 RMK A01 T01451028  RH  030%=      5-min Rain = 0
KGU1 101009Z 25011KT 15/M03 A2991 RMK A01 T01451028  RH  030%=      5-min Rain = 0
KGU1 101010Z 25013KT 15/M03 A2991 RMK A01 T01461028  RH  030%=      5-min Rain = 0
KGU1 101011Z 27011KT 15/M03 A2991 RMK A01 T01461028  RH  030%=      5-min Rain = 0
KGU1 101012Z 27011KT 15/M03 A2991 RMK A01 T01451028  RH  030%=      5-min Rain = 0
KGU1 101013Z 27012KT 14/M03 A2991 RMK A01 T01441028  RH  031%=      5-min Rain = 0
KGU1 101014Z 28013KT 14/M03 A2991 RMK A01 T01441028  RH  031%=      5-min Rain = 0
KGU1 101015Z 27011KT 14/M03 A2991 RMK A01 T01441028  RH  031%=      5-min Rain = 0
KGU1 101016Z 28015KT 14/M03 A2991 RMK A01 T01431029  RH  031%=      5-min Rain = 0
KGU1 101017Z 28015KT 14/M03 A2991 RMK A01 T01441029  RH  031%=      5-min Rain = 0
KGU1 101018Z 28015KT 14/M03 A2991 RMK A01 T01441029  RH  031%=      5-min Rain = 0
KGU1 101019Z 28013KT 14/M03 A2991 RMK A01 T01441029  RH  031%=      5-min Rain = 0
KGU1 101020Z 27012KT 14/M03 A299 RMK A01 T01431029  RH  031%=      5-min Rain = 0
KGU1 101021Z 26011KT 14/M03 A299 RMK A01 T01431028  RH  031%=      5-min Rain = 0
KGU1 101022Z 27013KT 14/M03 A299 RMK A01 T01421029  RH  031%=      5-min Rain = 0
KGU1 101023Z 27013KT 14/M03 A299 RMK A01 T01421029  RH  031%=      5-min Rain = 0
KGU1 101024Z 28012KT 14/M03 A299 RMK A01 T01421029  RH  031%=      5-min Rain = 0
KGU1 101025Z 28012KT 14/M03 A299 RMK A01 T01411029  RH  031%=      5-min Rain = 0
KGU1 101026Z 27010KT 14/M03 A299 RMK A01 T01411029  RH  031%=      5-min Rain = 0
KGU1 101027Z 28011KT 14/M03 A299 RMK A01 T01401029  RH  031%=      5-min Rain = 0
KGU1 101028Z 27008KT 14/M03 A299 RMK A01 T01391029  RH  031%=      5-min Rain = 0
KGU1 101029Z 27011KT 14/M03 A299 RMK A01 T01381029  RH  031%=      5-min Rain = 0
KGU1 101030Z 28013KT 14/M03 A299 RMK A01 T01381030  RH  031%=      5-min Rain = 0
KGU1 101031Z 27011KT 14/M03 A299 RMK A01 T01391030  RH  031%=      5-min Rain = 0
KGU1 101032Z 27010KT 14/M03 A299 RMK A01 T01381030  RH  031%=      5-min Rain = 0
KGU1 101033Z 27010KT 14/M03 A299 RMK A01 T01381030  RH  031%=      5-min Rain = 0
KGU1 101034Z 27012KT 14/M03 A299 RMK A01 T01381031  RH  031%=      5-min Rain = 0
KGU1 101035Z 28011KT 14/M03 A299 RMK A01 T01381031  RH  031%=      5-min Rain = 0
KGU1 101036Z 28011KT 14/M03 A299 RMK A01 T01371033  RH  031%=      5-min Rain = 0
KGU1 101037Z 27010G15KT 14/M03 A299 RMK A01 T01371033  RH  031%=      5-min Rain = 0
KGU1 101038Z 28015KT 14/M03 A299 RMK A01 T01371034  RH  031%=      5-min Rain = 0
KGU1 101039Z 28013KT 14/M03 A299 RMK A01 T01381034  RH  031%=      5-min Rain = 0
KGU1 101040Z 27015KT 14/M04 A299 RMK A01 T01381036  RH  030%=      5-min Rain = 0
KGU1 101041Z 27011KT 14/M04 A299 RMK A01 T01391035  RH  030%=      5-min Rain = 0
KGU1 101042Z 28013KT 14/M04 A299 RMK A01 T01381035  RH  030%=      5-min Rain = 0
KGU1 101043Z 27012KT 14/M04 A299 RMK A01 T01381036  RH  030%=      5-min Rain = 0
KGU1 101044Z 27011KT 14/M04 A299 RMK A01 T01371037  RH  030%=      5-min Rain = 0
KGU1 101045Z 26012KT 14/M04 A2989 RMK A01 T01381038  RH  030%=      5-min Rain = 0
KGU1 101046Z 26011KT 14/M04 A2989 RMK A01 T01381039  RH  029%=      5-min Rain = 0
KGU1 101047Z 28013KT 14/M04 A2989 RMK A01 T01381039  RH  029%=      5-min Rain = 0
KGU1 101048Z 27010KT 14/M04 A2989 RMK A01 T01381040  RH  029%=      5-min Rain = 0
KGU1 101049Z 27009KT 14/M04 A299 RMK A01 T01371040  RH  029%=      5-min Rain = 0
KGU1 101050Z 27010KT 14/M04 A2989 RMK A01 T01371041  RH  029%=      5-min Rain = 0
KGU1 101051Z 27009KT 14/M04 A2989 RMK A01 T01361041  RH  029%=      5-min Rain = 0
KGU1 101052Z 27010KT 14/M04 A2989 RMK A01 T01361041  RH  029%=      5-min Rain = 0
KGU1 101053Z 27010KT 14/M04 A2989 RMK A01 T01361042  RH  029%=      5-min Rain = 0
KGU1 101054Z 27008KT 14/M04 A2989 RMK A01 T01361043  RH  029%=      5-min Rain = 0
KGU1 101055Z 26007KT 14/M04 A2988 RMK A01 T01361042  RH  029%=      5-min Rain = 0
KGU1 101056Z 27008KT 14/M04 A2988 RMK A01 T01351043  RH  029%=      5-min Rain = 0
KGU1 101057Z 26009KT 14/M04 A2988 RMK A01 T01351043  RH  029%=      5-min Rain = 0
KGU1 101058Z 24007KT 14/M04 A2988 RMK A01 T01351043  RH  029%=      5-min Rain = 0
KGU1 101059Z 23005KT 14/M04 A2988 RMK A01 T01351043  RH  029%=      5-min Rain = 0
KGU1 101100Z 22008KT 13/M04 A2988 RMK A01 T01341042  RH  029%=      5-min Rain = 0
KGU1 101101Z 21008KT 13/M04 A2988 RMK A01 T01341040  RH  030%=      5-min Rain = 0
KGU1 101102Z 21009KT 13/M04 A2988 RMK A01 T01341038  RH  030%=      5-min Rain = 0
KGU1 101103Z 22008KT 13/M04 A2988 RMK A01 T01341038  RH  031%=      5-min Rain = 0
KGU1 101104Z 22009KT 13/M04 A2988 RMK A01 T01321037  RH  031%=      5-min Rain = 0
KGU1 101105Z 22009KT 13/M04 A2988 RMK A01 T01321036  RH  031%=      5-min Rain = 0
KGU1 101106Z 23008KT 13/M04 A2988 RMK A01 T01311037  RH  031%=      5-min Rain = 0
KGU1 101107Z 23010KT 13/M04 A2988 RMK A01 T01301037  RH  031%=      5-min Rain = 0
KGU1 101108Z 22009KT 13/M04 A2988 RMK A01 T01301036  RH  032%=      5-min Rain = 0
KGU1 101109Z 21009KT 13/M04 A2988 RMK A01 T01291035  RH  032%=      5-min Rain = 0
KGU1 101110Z 22009KT 13/M04 A2988 RMK A01 T01291035  RH  032%=      5-min Rain = 0
KGU1 101111Z 22009KT 13/M03 A2987 RMK A01 T01281034  RH  032%=      5-min Rain = 0
KGU1 101112Z 22009KT 13/M03 A2987 RMK A01 T01281034  RH  033%=      5-min Rain = 0
KGU1 101113Z 22007KT 13/M03 A2987 RMK A01 T01271033  RH  033%=      5-min Rain = 0
KGU1 101114Z 22009KT 13/M03 A2987 RMK A01 T01271033  RH  033%=      5-min Rain = 0
KGU1 101115Z 21011KT 13/M03 A2987 RMK A01 T01261032  RH  033%=      5-min Rain = 0
KGU1 101116Z 21012KT 13/M03 A2987 RMK A01 T01261032  RH  033%=      5-min Rain = 0
KGU1 101117Z 21013KT 13/M03 A2987 RMK A01 T01261032  RH  034%=      5-min Rain = 0
KGU1 101118Z 21011KT 13/M03 A2987 RMK A01 T01261031  RH  034%=      5-min Rain = 0
KGU1 101119Z 21012KT 13/M03 A2987 RMK A01 T01251030  RH  034%=      5-min Rain = 0
KGU1 101120Z 21012KT 13/M03 A2988 RMK A01 T01251030  RH  034%=      5-min Rain = 0
KGU1 101121Z 22008KT 12/M03 A2988 RMK A01 T01241029  RH  035%=      5-min Rain = 0
KGU1 101122Z 21010KT 12/M03 A2988 RMK A01 T01231029  RH  035%=      5-min Rain = 0
KGU1 101123Z 21012KT 12/M03 A2987 RMK A01 T01221028  RH  035%=      5-min Rain = 0
KGU1 101124Z 21014KT 12/M03 A2987 RMK A01 T01221028  RH  035%=      5-min Rain = 0
KGU1 101125Z 21013KT 12/M03 A2988 RMK A01 T01221027  RH  036%=      5-min Rain = 0
KGU1 101126Z 22009KT 12/M03 A2988 RMK A01 T01211027  RH  036%=      5-min Rain = 0
KGU1 101127Z 21011KT 12/M03 A2987 RMK A01 T01201026  RH  036%=      5-min Rain = 0
KGU1 101128Z 20012KT 12/M03 A2987 RMK A01 T01201026  RH  036%=      5-min Rain = 0
KGU1 101129Z 21014KT 12/M03 A2987 RMK A01 T01201025  RH  037%=      5-min Rain = 0
KGU1 101130Z 21011KT 12/M03 A2987 RMK A01 T01191025  RH  037%=      5-min Rain = 0
KGU1 101131Z 22012KT 12/M03 A2987 RMK A01 T01191025  RH  037%=      5-min Rain = 0
KGU1 101132Z 22009KT 12/M03 A2987 RMK A01 T01191026  RH  037%=      5-min Rain = 0
KGU1 101133Z 22009KT 12/M03 A2987 RMK A01 T01191026  RH  037%=      5-min Rain = 0
KGU1 101134Z 21012KT 12/M03 A2987 RMK A01 T01191026  RH  037%=      5-min Rain = 0
KGU1 101135Z 23010KT 12/M03 A2987 RMK A01 T01191026  RH  037%=      5-min Rain = 0
KGU1 101136Z 23009KT 12/M03 A2987 RMK A01 T01191026  RH  037%=      5-min Rain = 0
KGU1 101137Z 23010KT 12/M03 A2987 RMK A01 T01201031  RH  035%=      5-min Rain = 0
KGU1 101138Z 22008KT 12/M03 A2987 RMK A01 T01211029  RH  035%=      5-min Rain = 0
KGU1 101139Z 22011KT 12/M03 A2987 RMK A01 T01211028  RH  036%=      5-min Rain = 0
KGU1 101140Z 22010KT 12/M03 A2987 RMK A01 T01211027  RH  036%=      5-min Rain = 0
KGU1 101141Z 22010KT 12/M03 A2987 RMK A01 T01201028  RH  036%=      5-min Rain = 0
KGU1 101142Z 23008KT 12/M03 A2987 RMK A01 T01191028  RH  036%=      5-min Rain = 0
KGU1 101143Z 21009KT 12/M03 A2987 RMK A01 T01191030  RH  036%=      5-min Rain = 0
KGU1 101144Z 20013KT 12/M03 A2987 RMK A01 T01191028  RH  036%=      5-min Rain = 0
KGU1 101145Z 21013KT 12/M03 A2987 RMK A01 T01191027  RH  037%=      5-min Rain = 0
KGU1 101146Z 22011KT 12/M03 A2987 RMK A01 T01191026  RH  037%=      5-min Rain = 0
KGU1 101147Z 22011KT 12/M03 A2987 RMK A01 T01191025  RH  037%=      5-min Rain = 0
KGU1 101148Z 21012KT 12/M03 A2987 RMK A01 T01181026  RH  037%=      5-min Rain = 0
KGU1 101149Z 21013KT 12/M03 A2987 RMK A01 T01181026  RH  037%=      5-min Rain = 0
KGU1 101150Z 21013KT 12/M03 A2987 RMK A01 T01171025  RH  037%=      5-min Rain = 0
KGU1 101151Z 21015KT 12/M02 A2987 RMK A01 T01171024  RH  038%=      5-min Rain = 0
KGU1 101152Z 22013KT 12/M02 A2987 RMK A01 T01171024  RH  038%=      5-min Rain = 0
KGU1 101153Z 23010KT 12/M03 A2988 RMK A01 T01161025  RH  038%=      5-min Rain = 0
KGU1 101154Z 22010KT 12/M03 A2987 RMK A01 T01161027  RH  037%=      5-min Rain = 0
KGU1 101155Z 24012KT 12/M03 A2987 RMK A01 T01181032  RH  035%=      5-min Rain = 0
KGU1 101156Z 24011G19KT 12/M04 A2987 RMK A01 T01221036  RH  034%=      5-min Rain = 0
KGU1 101157Z 24018KT 13/M04 A2987 RMK A01 T01271040  RH  031%=      5-min Rain = 0
KGU1 101158Z 25019G25KT 14/M04 A2987 RMK A01 T01351040  RH  030%=      5-min Rain = 0
KGU1 101159Z 22010KT 14/M03 A2987 RMK A01 T01371034  RH  031%=      5-min Rain = 0
KGU1 101200Z 24011KT 13/M03 A2987 RMK A01 T01331030  RH  032%=      5-min Rain = 0
KGU1 101201Z 25020G26KT 13/M04 A2987 RMK A01 T01341042  RH  030%=      5-min Rain = 0
KGU1 101202Z 25020G29KT 14/M05 A2986 RMK A01 T01411045  RH  027%=      5-min Rain = 0
KGU1 101203Z 25014G21KT 15/M05 A2987 RMK A01 T01471046  RH  026%=      5-min Rain = 0
KGU1 101204Z 27013G19KT 15/M05 A2987 RMK A01 T01491045  RH  026%=      5-min Rain = 0
KGU1 101205Z 28021G27KT 15/M04 A2987 RMK A01 T01511043  RH  026%=      5-min Rain = 0
KGU1 101206Z 26016KT 15/M04 A2987 RMK A01 T01511042  RH  026%=      5-min Rain = 0
KGU1 101207Z 25021G28KT 15/M04 A2987 RMK A01 T01521043  RH  026%=      5-min Rain = 0
KGU1 101208Z 25022G29KT 15/M04 A2987 RMK A01 T01531041  RH  026%=      5-min Rain = 0
KGU1 101209Z 25020KT 15/M04 A2987 RMK A01 T01531040  RH  026%=      5-min Rain = 0
KGU1 101210Z 24017G23KT 15/M04 A2987 RMK A01 T01521040  RH  027%=      5-min Rain = 0
KGU1 101211Z 25014KT 15/M04 A2987 RMK A01 T01521041  RH  026%=      5-min Rain = 0
KGU1 101212Z 24013KT 15/M04 A2987 RMK A01 T01521042  RH  026%=      5-min Rain = 0
KGU1 101213Z 23012G18KT 15/M04 A2987 RMK A01 T01521039  RH  027%=      5-min Rain = 0
KGU1 101214Z 22014KT 15/M04 A2987 RMK A01 T01501037  RH  028%=      5-min Rain = 0
KGU1 101215Z 22010KT 15/M04 A2987 RMK A01 T01491038  RH  028%=      5-min Rain = 0
KGU1 101216Z 23011KT 14/M03 A2987 RMK A01 T01441032  RH  030%=      5-min Rain = 0
KGU1 101217Z 25015KT 14/M04 A2987 RMK A01 T01421036  RH  029%=      5-min Rain = 0
KGU1 101218Z 24012G17KT 14/M04 A2987 RMK A01 T01441037  RH  029%=      5-min Rain = 0
KGU1 101219Z 20009KT 14/M03 A2987 RMK A01 T01441031  RH  030%=      5-min Rain = 0
KGU1 101220Z 24012KT 14/M03 A2987 RMK A01 T01371031  RH  031%=      5-min Rain = 0
KGU1 101221Z 25015KT 14/M04 A2987 RMK A01 T01371036  RH  030%=      5-min Rain = 0
KGU1 101222Z 24021G27KT 14/M04 A2986 RMK A01 T01421036  RH  029%=      5-min Rain = 0
KGU1 101223Z 27009G17KT 15/M04 A2986 RMK A01 T01461037  RH  028%=      5-min Rain = 0
KGU1 101224Z 24011G16KT 15/M04 A2987 RMK A01 T01471037  RH  028%=      5-min Rain = 0
KGU1 101225Z 24015G20KT 15/M04 A2987 RMK A01 T01481036  RH  028%=      5-min Rain = 0
KGU1 101226Z 26016G21KT 15/M03 A2986 RMK A01 T01491034  RH  028%=      5-min Rain = 0
KGU1 101227Z 25020G26KT 15/M03 A2986 RMK A01 T01501034  RH  028%=      5-min Rain = 0
KGU1 101228Z 24019G29KT 15/M03 A2986 RMK A01 T01511034  RH  028%=      5-min Rain = 0
KGU1 101229Z 26024G29KT 15/M03 A2986 RMK A01 T01521034  RH  028%=      5-min Rain = 0
KGU1 101230Z 26020G30KT 15/M04 A2986 RMK A01 T01531035  RH  028%=      5-min Rain = 0
KGU1 101231Z 25026G32KT 15/M03 A2986 RMK A01 T01531033  RH  028%=      5-min Rain = 0
KGU1 101232Z 28025G30KT 16/M03 A2987 RMK A01 T01551034  RH  027%=      5-min Rain = 0
KGU1 101233Z 29017G22KT 15/M03 A2986 RMK A01 T01541034  RH  027%=      5-min Rain = 0
KGU1 101234Z 25017G29KT 15/M03 A2987 RMK A01 T01541033  RH  028%=      5-min Rain = 0
KGU1 101235Z 27027G33KT 15/M03 A2986 RMK A01 T01531032  RH  028%=      5-min Rain = 0
KGU1 101236Z 28015G21KT 15/M03 A2987 RMK A01 T01541032  RH  028%=      5-min Rain = 0
KGU1 101237Z 27011G17KT 15/M03 A2986 RMK A01 T01531033  RH  028%=      5-min Rain = 0
KGU1 101238Z 25015G21KT 15/M03 A2986 RMK A01 T01521032  RH  028%=      5-min Rain = 0
KGU1 101239Z 24016KT 15/M03 A2986 RMK A01 T01521031  RH  028%=      5-min Rain = 0
KGU1 101240Z 24022G31KT 15/M03 A2986 RMK A01 T01521031  RH  028%=      5-min Rain = 0
KGU1 101241Z 24015G21KT 15/M03 A2986 RMK A01 T01531031  RH  028%=      5-min Rain = 0
KGU1 101242Z 25017G23KT 15/M03 A2987 RMK A01 T01541031  RH  028%=      5-min Rain = 0
KGU1 101243Z 25012G24KT 15/M03 A2987 RMK A01 T01541032  RH  028%=      5-min Rain = 0
KGU1 101244Z 23010G16KT 15/M03 A2987 RMK A01 T01531031  RH  028%=      5-min Rain = 0
KGU1 101245Z 25017G28KT 15/M03 A2987 RMK A01 T01531032  RH  028%=      5-min Rain = 0
KGU1 101246Z 27012KT 15/M03 A2987 RMK A01 T01521031  RH  028%=      5-min Rain = 0
KGU1 101247Z 27012G17KT 15/M03 A2987 RMK A01 T01511032  RH  028%=      5-min Rain = 0
KGU1 101248Z 28010KT 15/M03 A2987 RMK A01 T01491032  RH  029%=      5-min Rain = 0
KGU1 101249Z 25013G22KT 15/M03 A2987 RMK A01 T01481031  RH  029%=      5-min Rain = 0
KGU1 101250Z 23026G32KT 15/M03 A2986 RMK A01 T01491027  RH  030%=      5-min Rain = 0
KGU1 101251Z 27016G25KT 15/M03 A2987 RMK A01 T01511028  RH  029%=      5-min Rain = 0
KGU1 101252Z 27018G24KT 15/M03 A2987 RMK A01 T01521029  RH  029%=      5-min Rain = 0
KGU1 101253Z 28020G27KT 15/M03 A2987 RMK A01 T01511028  RH  029%=      5-min Rain = 0
KGU1 101254Z 25015G25KT 15/M03 A2986 RMK A01 T01511029  RH  029%=      5-min Rain = 0
KGU1 101255Z 26015KT 15/M03 A2987 RMK A01 T01501029  RH  029%=      5-min Rain = 0
KGU1 101256Z 25015G24KT 15/M03 A2987 RMK A01 T01491029  RH  030%=      5-min Rain = 0
KGU1 101257Z 26013KT 15/M03 A2987 RMK A01 T01491029  RH  030%=      5-min Rain = 0
KGU1 101258Z 25018G32KT 15/M03 A2987 RMK A01 T01481029  RH  030%=      5-min Rain = 0
KGU1 101259Z 25016G25KT 15/M03 A2987 RMK A01 T01491029  RH  030%=      5-min Rain = 0
KGU1 101300Z 26016G21KT 15/M03 A2986 RMK A01 T01491028  RH  030%=      5-min Rain = 0
KGU1 101301Z 25013KT 15/M03 A2987 RMK A01 T01481029  RH  030%=      5-min Rain = 0
KGU1 101302Z 24016G23KT 15/M03 A2987 RMK A01 T01471029  RH  030%=      5-min Rain = 0
KGU1 101303Z 25018G30KT 15/M03 A2986 RMK A01 T01481030  RH  030%=      5-min Rain = 0
KGU1 101304Z 24020G35KT 15/M03 A2987 RMK A01 T01491029  RH  029%=      5-min Rain = 0
KGU1 101305Z 25017G26KT 15/M03 A2986 RMK A01 T01481029  RH  030%=      5-min Rain = 0
KGU1 101306Z 25016G21KT 15/M03 A2987 RMK A01 T01481029  RH  030%=      5-min Rain = 0
KGU1 101307Z 25013G19KT 15/M03 A2987 RMK A01 T01471030  RH  030%=      5-min Rain = 0
KGU1 101308Z 25014G19KT 15/M03 A2987 RMK A01 T01471030  RH  030%=      5-min Rain = 0
KGU1 101309Z 26009KT 15/M03 A2987 RMK A01 T01461029  RH  030%=      5-min Rain = 0
KGU1 101310Z 24012KT 15/M03 A2986 RMK A01 T01451030  RH  030%=      5-min Rain = 0
KGU1 101311Z 24014KT 15/M03 A2987 RMK A01 T01451030  RH  030%=      5-min Rain = 0
KGU1 101312Z 26012KT 15/M03 A2987 RMK A01 T01451030  RH  030%=      5-min Rain = 0
KGU1 101313Z 29014KT 14/M03 A2987 RMK A01 T01431029  RH  031%=      5-min Rain = 0
KGU1 101314Z 26011KT 14/M03 A2987 RMK A01 T01431029  RH  031%=      5-min Rain = 0
KGU1 101315Z 24014G19KT 14/M03 A2986 RMK A01 T01431030  RH  030%=      5-min Rain = 0
KGU1 101316Z 24014KT 14/M03 A2987 RMK A01 T01431030  RH  030%=      5-min Rain = 0
KGU1 101317Z 24013G19KT 14/M03 A2987 RMK A01 T01431031  RH  030%=      5-min Rain = 0
KGU1 101318Z 26012KT 14/M03 A2987 RMK A01 T01431030  RH  030%=      5-min Rain = 0
KGU1 101319Z 26011KT 14/M03 A2987 RMK A01 T01421030  RH  031%=      5-min Rain = 0
KGU1 101320Z 25014G21KT 14/M03 A2987 RMK A01 T01421031  RH  031%=      5-min Rain = 0
KGU1 101321Z 25012G19KT 14/M03 A2987 RMK A01 T01421031  RH  030%=      5-min Rain = 0
KGU1 101322Z 24013KT 14/M03 A2987 RMK A01 T01411031  RH  031%=      5-min Rain = 0
KGU1 101323Z 24012KT 14/M03 A2987 RMK A01 T01411031  RH  031%=      5-min Rain = 0
KGU1 101324Z 25012KT 14/M03 A2987 RMK A01 T01411032  RH  030%=      5-min Rain = 0
KGU1 101325Z 25009G14KT 14/M03 A2987 RMK A01 T01411032  RH  030%=      5-min Rain = 0
KGU1 101326Z 26012G18KT 14/M03 A2987 RMK A01 T01401031  RH  031%=      5-min Rain = 0
KGU1 101327Z 25012G21KT 14/M03 A2987 RMK A01 T01401030  RH  031%=      5-min Rain = 0
KGU1 101328Z 27015G21KT 14/M03 A2986 RMK A01 T01411031  RH  031%=      5-min Rain = 0
KGU1 101329Z 24015G20KT 14/M03 A2986 RMK A01 T01411031  RH  031%=      5-min Rain = 0
KGU1 101330Z 26015G22KT 14/M03 A2986 RMK A01 T01411031  RH  031%=      5-min Rain = 0
KGU1 101331Z 26014G21KT 14/M03 A2987 RMK A01 T01411032  RH  030%=      5-min Rain = 0
KGU1 101332Z 31014KT 14/M03 A2987 RMK A01 T01401031  RH  031%=      5-min Rain = 0
KGU1 101333Z 25013G18KT 14/M03 A2987 RMK A01 T01401030  RH  031%=      5-min Rain = 0
KGU1 101334Z 23021G35KT 14/M03 A2986 RMK A01 T01401029  RH  031%=      5-min Rain = 0
KGU1 101335Z 26019G24KT 14/M03 A2986 RMK A01 T01411029  RH  031%=      5-min Rain = 0
KGU1 101336Z 24017G26KT 14/M03 A2986 RMK A01 T01411030  RH  031%=      5-min Rain = 0
KGU1 101337Z 28021G34KT 14/M03 A2987 RMK A01 T01421028  RH  031%=      5-min Rain = 0
KGU1 101338Z 28013G20KT 14/M03 A2986 RMK A01 T01431029  RH  031%=      5-min Rain = 0
KGU1 101339Z 24015G24KT 14/M03 A2986 RMK A01 T01421029  RH  031%=      5-min Rain = 0
KGU1 101340Z 22013G18KT 14/M03 A2986 RMK A01 T01421029  RH  031%=      5-min Rain = 0
KGU1 101341Z 22018KT 14/M03 A2986 RMK A01 T01411029  RH  031%=      5-min Rain = 0
KGU1 101342Z 22019G36KT 14/M03 A2986 RMK A01 T01411028  RH  031%=      5-min Rain = 0
KGU1 101343Z 25017G28KT 14/M03 A2986 RMK A01 T01411028  RH  031%=      5-min Rain = 0
KGU1 101344Z 26016KT 14/M03 A2987 RMK A01 T01411029  RH  031%=      5-min Rain = 0
KGU1 101345Z 25012KT 14/M03 A2987 RMK A01 T01401028  RH  031%=      5-min Rain = 0
KGU1 101346Z 26014G19KT 14/M03 A2987 RMK A01 T01401028  RH  031%=      5-min Rain = 0
KGU1 101347Z 24014G19KT 14/M03 A2987 RMK A01 T01401028  RH  031%=      5-min Rain = 0
KGU1 101348Z 24017G24KT 14/M03 A2986 RMK A01 T01401028  RH  032%=      5-min Rain = 0
KGU1 101349Z 25019G26KT 14/M03 A2987 RMK A01 T01411028  RH  031%=      5-min Rain = 0
KGU1 101350Z 28020G32KT 14/M03 A2987 RMK A01 T01411027  RH  032%=      5-min Rain = 0
KGU1 101351Z 28018G29KT 14/M03 A2987 RMK A01 T01411027  RH  032%=      5-min Rain = 0
KGU1 101352Z 24015G22KT 14/M03 A2987 RMK A01 T01401028  RH  032%=      5-min Rain = 0
KGU1 101353Z 23019KT 14/M03 A2986 RMK A01 T01401026  RH  032%=      5-min Rain = 0
KGU1 101354Z 22017G22KT 14/M03 A2986 RMK A01 T01401028  RH  032%=      5-min Rain = 0
KGU1 101355Z 25014G19KT 14/M03 A2986 RMK A01 T01401028  RH  032%=      5-min Rain = 0
KGU1 101356Z 25017G24KT 14/M03 A2987 RMK A01 T01391028  RH  032%=      5-min Rain = 0
KGU1 101357Z 26008G13KT 14/M03 A2987 RMK A01 T01391028  RH  032%=      5-min Rain = 0
KGU1 101358Z 26011KT 14/M03 A2987 RMK A01 T01391028  RH  032%=      5-min Rain = 0
KGU1 101359Z 26014G20KT 14/M03 A2987 RMK A01 T01391028  RH  032%=      5-min Rain = 0
KGU1 101400Z 28016KT 14/M03 A2987 RMK A01 T01381027  RH  032%=      5-min Rain = 0
KGU1 101401Z 27013KT 14/M03 A2987 RMK A01 T01381028  RH  032%=      5-min Rain = 0
KGU1 101402Z 24014KT 14/M03 A2987 RMK A01 T01381027  RH  032%=      5-min Rain = 0
KGU1 101403Z 24014G23KT 14/M03 A2987 RMK A01 T01381027  RH  032%=      5-min Rain = 0
KGU1 101404Z 26010KT 14/M03 A2987 RMK A01 T01391027  RH  032%=      5-min Rain = 0
KGU1 101405Z 26014G19KT 14/M03 A2987 RMK A01 T01381027  RH  032%=      5-min Rain = 0
KGU1 101406Z 26012G18KT 14/M03 A2987 RMK A01 T01381027  RH  032%=      5-min Rain = 0
KGU1 101407Z 28011KT 14/M03 A2987 RMK A01 T01391027  RH  032%=      5-min Rain = 0
KGU1 101408Z 27013G18KT 14/M03 A2987 RMK A01 T01381027  RH  032%=      5-min Rain = 0
KGU1 101409Z 28020KT 14/M03 A2987 RMK A01 T01381027  RH  032%=      5-min Rain = 0
KGU1 101410Z 31017G24KT 14/M03 A2987 RMK A01 T01391027  RH  032%=      5-min Rain = 0
KGU1 101411Z 26010KT 14/M03 A2987 RMK A01 T01391027  RH  032%=      5-min Rain = 0
KGU1 101412Z 22013KT 14/M03 A2987 RMK A01 T01401028  RH  032%=      5-min Rain = 0
KGU1 101413Z 22013KT 14/M03 A2987 RMK A01 T01401027  RH  032%=      5-min Rain = 0
KGU1 101414Z 24015G20KT 14/M03 A2987 RMK A01 T01401027  RH  032%=      5-min Rain = 0
KGU1 101415Z 23010G20KT 14/M03 A2987 RMK A01 T01411028  RH  031%=      5-min Rain = 0
KGU1 101416Z 25016G21KT 14/M03 A2987 RMK A01 T01411028  RH  031%=      5-min Rain = 0
KGU1 101417Z 27009KT 14/M03 A2987 RMK A01 T01401028  RH  031%=      5-min Rain = 0
KGU1 101418Z 24008G14KT 14/M03 A2987 RMK A01 T01401027  RH  032%=      5-min Rain = 0
KGU1 101419Z 23018G23KT 14/M03 A2987 RMK A01 T01401028  RH  031%=      5-min Rain = 0
KGU1 101420Z 23016G21KT 14/M03 A2986 RMK A01 T01401028  RH  031%=      5-min Rain = 0
KGU1 101421Z 26014G23KT 14/M03 A2987 RMK A01 T01401028  RH  031%=      5-min Rain = 0
KGU1 101422Z 27021G26KT 14/M03 A2987 RMK A01 T01401028  RH  032%=      5-min Rain = 0
KGU1 101423Z 28015G22KT 14/M03 A2987 RMK A01 T01401028  RH  032%=      5-min Rain = 0
KGU1 101424Z 26014G19KT 14/M03 A2987 RMK A01 T01401027  RH  032%=      5-min Rain = 0
KGU1 101425Z 26020KT 14/M03 A2987 RMK A01 T01411027  RH  031%=      5-min Rain = 0
KGU1 101426Z 28020KT 14/M03 A2987 RMK A01 T01421027  RH  031%=      5-min Rain = 0
KGU1 101427Z 26012KT 14/M03 A2987 RMK A01 T01421028  RH  031%=      5-min Rain = 0
KGU1 101428Z 27011G16KT 14/M03 A2987 RMK A01 T01421028  RH  031%=      5-min Rain = 0
KGU1 101429Z 25015G22KT 14/M03 A2987 RMK A01 T01421029  RH  031%=      5-min Rain = 0
KGU1 101430Z 26017G22KT 14/M03 A2987 RMK A01 T01411028  RH  031%=      5-min Rain = 0
KGU1 101431Z 28017G22KT 14/M03 A2987 RMK A01 T01421028  RH  031%=      5-min Rain = 0
KGU1 101432Z 25012G17KT 14/M03 A2987 RMK A01 T01421029  RH  031%=      5-min Rain = 0
KGU1 101433Z 23015G21KT 14/M03 A2987 RMK A01 T01411030  RH  031%=      5-min Rain = 0
KGU1 101434Z 26023G28KT 14/M03 A2987 RMK A01 T01411028  RH  031%=      5-min Rain = 0
KGU1 101435Z 28014G20KT 14/M03 A2987 RMK A01 T01411029  RH  031%=      5-min Rain = 0
KGU1 101436Z 27012KT 14/M03 A2987 RMK A01 T01411029  RH  031%=      5-min Rain = 0
KGU1 101437Z 26012G17KT 14/M03 A2987 RMK A01 T01401030  RH  031%=      5-min Rain = 0
KGU1 101438Z 26013KT 14/M03 A2987 RMK A01 T01401029  RH  031%=      5-min Rain = 0
KGU1 101439Z 24011KT 14/M03 A2987 RMK A01 T01411030  RH  031%=      5-min Rain = 0
KGU1 101440Z 25015G23KT 14/M03 A2987 RMK A01 T01411030  RH  031%=      5-min Rain = 0
KGU1 101441Z 25018G25KT 14/M03 A2987 RMK A01 T01411030  RH  031%=      5-min Rain = 0
KGU1 101442Z 24013KT 14/M03 A2987 RMK A01 T01411030  RH  031%=      5-min Rain = 0
KGU1 101443Z 24009G15KT 14/M03 A2987 RMK A01 T01401030  RH  031%=      5-min Rain = 0
KGU1 101444Z 23019G26KT 14/M03 A2987 RMK A01 T01411030  RH  031%=      5-min Rain = 0
KGU1 101445Z 25020G26KT 14/M03 A2987 RMK A01 T01411030  RH  031%=      5-min Rain = 0
KGU1 101446Z 28012G17KT 14/M03 A2987 RMK A01 T01411029  RH  031%=      5-min Rain = 0
KGU1 101447Z 26017KT 14/M03 A2987 RMK A01 T01411030  RH  031%=      5-min Rain = 0
KGU1 101448Z 25016G22KT 14/M03 A2987 RMK A01 T01411031  RH  031%=      5-min Rain = 0
KGU1 101449Z 25017G24KT 14/M03 A2987 RMK A01 T01411030  RH  031%=      5-min Rain = 0
KGU1 101450Z 25019KT 14/M03 A2987 RMK A01 T01411030  RH  031%=      5-min Rain = 0
KGU1 101451Z 27015G20KT 14/M03 A2987 RMK A01 T01421031  RH  030%=      5-min Rain = 0
KGU1 101452Z 28011KT 14/M03 A2987 RMK A01 T01421030  RH  031%=      5-min Rain = 0
KGU1 101453Z 26017KT 14/M03 A2987 RMK A01 T01421031  RH  030%=      5-min Rain = 0
KGU1 101454Z 25014KT 14/M03 A2987 RMK A01 T01421030  RH  030%=      5-min Rain = 0
KGU1 101455Z 26012G18KT 14/M03 A2987 RMK A01 T01431030  RH  030%=      5-min Rain = 0
KGU1 101456Z 25015G20KT 14/M03 A2987 RMK A01 T01431030  RH  030%=      5-min Rain = 0
KGU1 101457Z 26012G17KT 14/M03 A2987 RMK A01 T01431030  RH  030%=      5-min Rain = 0
KGU1 101458Z 26014G22KT 14/M03 A2987 RMK A01 T01441030  RH  030%=      5-min Rain = 0
KGU1 101459Z 26012G19KT 14/M03 A2987 RMK A01 T01441030  RH  030%=      5-min Rain = 0
KGU1 101500Z 24019G26KT 14/M03 A2986 RMK A01 T01441031  RH  030%=      5-min Rain = 0
KGU1 101501Z 23020G26KT 14/M03 A2986 RMK A01 T01431030  RH  030%=      5-min Rain = 0
KGU1 101502Z 25024G32KT 14/M03 A2986 RMK A01 T01431030  RH  030%=      5-min Rain = 0
KGU1 101503Z 28014G20KT 14/M03 A2987 RMK A01 T01431030  RH  030%=      5-min Rain = 0
KGU1 101504Z 23010G15KT 14/M03 A2986 RMK A01 T01431030  RH  030%=      5-min Rain = 0
KGU1 101505Z 25016KT 14/M03 A2987 RMK A01 T01441029  RH  030%=      5-min Rain = 0
KGU1 101506Z 25015G21KT 14/M03 A2987 RMK A01 T01441029  RH  030%=      5-min Rain = 0
KGU1 101507Z 25012KT 14/M03 A2987 RMK A01 T01441029  RH  030%=      5-min Rain = 0
KGU1 101508Z 23012G17KT 15/M03 A2987 RMK A01 T01451028  RH  030%=      5-min Rain = 0
KGU1 101509Z 24016KT 15/M03 A2987 RMK A01 T01451028  RH  030%=      5-min Rain = 0
KGU1 101510Z 26016G22KT 14/M03 A2987 RMK A01 T01441029  RH  031%=      5-min Rain = 0
KGU1 101511Z 25012G17KT 14/M03 A2987 RMK A01 T01421028  RH  031%=      5-min Rain = 0
KGU1 101512Z 23014G20KT 14/M03 A2987 RMK A01 T01421028  RH  031%=      5-min Rain = 0
KGU1 101513Z 25016G23KT 14/M03 A2986 RMK A01 T01411027  RH  032%=      5-min Rain = 0
KGU1 101514Z 23014KT 14/M03 A2986 RMK A01 T01401027  RH  032%=      5-min Rain = 0
KGU1 101515Z 24020G25KT 14/M03 A2986 RMK A01 T01391027  RH  032%=      5-min Rain = 0
KGU1 101516Z 24017KT 14/M03 A2986 RMK A01 T01391026  RH  032%=      5-min Rain = 0
KGU1 101517Z 24019G31KT 14/M03 A2986 RMK A01 T01381027  RH  032%=      5-min Rain = 0
KGU1 101518Z 24017G27KT 14/M03 A2986 RMK A01 T01381026  RH  032%=      5-min Rain = 0
KGU1 101519Z 24019G25KT 14/M03 A2986 RMK A01 T01381027  RH  032%=      5-min Rain = 0
KGU1 101520Z 27018G23KT 14/M03 A2987 RMK A01 T01381027  RH  032%=      5-min Rain = 0
KGU1 101521Z 26020G27KT 14/M03 A2987 RMK A01 T01381027  RH  032%=      5-min Rain = 0
KGU1 101522Z 25017KT 14/M03 A2987 RMK A01 T01381027  RH  032%=      5-min Rain = 0
KGU1 101523Z 26017G26KT 14/M03 A2987 RMK A01 T01391027  RH  032%=      5-min Rain = 0
KGU1 101524Z 24017KT 14/M03 A2987 RMK A01 T01401027  RH  032%=      5-min Rain = 0
KGU1 101525Z 25021G27KT 14/M03 A2987 RMK A01 T01401026  RH  032%=      5-min Rain = 0
KGU1 101526Z 25025KT 14/M03 A2987 RMK A01 T01411026  RH  032%=      5-min Rain = 0
KGU1 101527Z 26018G24KT 14/M03 A2987 RMK A01 T01421027  RH  031%=      5-min Rain = 0
KGU1 101528Z 26017G25KT 14/M03 A2987 RMK A01 T01421027  RH  031%=      5-min Rain = 0
KGU1 101529Z 26019G27KT 14/M03 A2987 RMK A01 T01411026  RH  032%=      5-min Rain = 0
KGU1 101530Z 24017G27KT 14/M03 A2987 RMK A01 T01401026  RH  032%=      5-min Rain = 0
KGU1 101531Z 25023G29KT 14/M03 A2987 RMK A01 T01391026  RH  032%=      5-min Rain = 0
KGU1 101532Z 29026G35KT 14/M03 A2987 RMK A01 T01391026  RH  032%=      5-min Rain = 0
KGU1 101533Z 26017G23KT 14/M03 A2987 RMK A01 T01391026  RH  032%=      5-min Rain = 0
KGU1 101534Z 26013G22KT 14/M03 A2987 RMK A01 T01391026  RH  032%=      5-min Rain = 0
KGU1 101535Z 25015G24KT 14/M03 A2987 RMK A01 T01391026  RH  032%=      5-min Rain = 0
KGU1 101536Z 26019KT 14/M03 A2987 RMK A01 T01381027  RH  032%=      5-min Rain = 0
KGU1 101537Z 26013G18KT 14/M03 A2987 RMK A01 T01381026  RH  032%=      5-min Rain = 0
KGU1 101538Z 24017G25KT 14/M03 A2987 RMK A01 T01381027  RH  032%=      5-min Rain = 0
KGU1 101539Z 24021G27KT 14/M03 A2986 RMK A01 T01381027  RH  032%=      5-min Rain = 0
KGU1 101540Z 26019G28KT 14/M03 A2987 RMK A01 T01381027  RH  032%=      5-min Rain = 0
KGU1 101541Z 25013G18KT 14/M03 A2987 RMK A01 T01381027  RH  032%=      5-min Rain = 0
KGU1 101542Z 23026G38KT 14/M03 A2986 RMK A01 T01391027  RH  032%=      5-min Rain = 0
KGU1 101543Z 26021G26KT 14/M03 A2987 RMK A01 T01391027  RH  032%=      5-min Rain = 0
KGU1 101544Z 28015KT 14/M03 A2987 RMK A01 T01401027  RH  032%=      5-min Rain = 0
KGU1 101545Z 24012G20KT 14/M03 A2987 RMK A01 T01411027  RH  032%=      5-min Rain = 0
KGU1 101546Z 24021G27KT 14/M03 A2986 RMK A01 T01421027  RH  031%=      5-min Rain = 0
KGU1 101547Z 24021G39KT 14/M03 A2987 RMK A01 T01411028  RH  031%=      5-min Rain = 0
KGU1 101548Z 27019G24KT 14/M03 A2987 RMK A01 T01401027  RH  032%=      5-min Rain = 0
KGU1 101549Z 27017KT 14/M03 A2987 RMK A01 T01401027  RH  032%=      5-min Rain = 0
KGU1 101550Z 24020G27KT 14/M03 A2986 RMK A01 T01401027  RH  032%=      5-min Rain = 0
KGU1 101551Z 24027G36KT 14/M03 A2986 RMK A01 T01401027  RH  032%=      5-min Rain = 0
KGU1 101552Z 28024G34KT 14/M03 A2987 RMK A01 T01391028  RH  032%=      5-min Rain = 0
KGU1 101553Z 25015G21KT 14/M03 A2986 RMK A01 T01401027  RH  032%=      5-min Rain = 0
KGU1 101554Z 26019G26KT 14/M03 A2986 RMK A01 T01391027  RH  032%=      5-min Rain = 0
KGU1 101555Z 23018G29KT 14/M03 A2986 RMK A01 T01391027  RH  032%=      5-min Rain = 0
KGU1 101556Z 26018G28KT 14/M03 A2986 RMK A01 T01401027  RH  032%=      5-min Rain = 0
KGU1 101557Z 24015G21KT 14/M03 A2986 RMK A01 T01401027  RH  032%=      5-min Rain = 0
KGU1 101558Z 25017G25KT 14/M03 A2986 RMK A01 T01401027  RH  032%=      5-min Rain = 0
KGU1 101559Z 24022G35KT 14/M03 A2986 RMK A01 T01401027  RH  032%=      5-min Rain = 0
KGU1 101600Z 25024G31KT 14/M03 A2986 RMK A01 T01401027  RH  032%=      5-min Rain = 0
KGU1 101601Z 26023G30KT 14/M03 A2987 RMK A01 T01401026  RH  032%=      5-min Rain = 0
KGU1 101602Z 27023G38KT 14/M03 A2987 RMK A01 T01401026  RH  032%=      5-min Rain = 0
KGU1 101603Z 24016G25KT 14/M03 A2986 RMK A01 T01391026  RH  032%=      5-min Rain = 0
KGU1 101604Z 25025G31KT 14/M03 A2986 RMK A01 T01391026  RH  032%=      5-min Rain = 0
KGU1 101605Z 27019KT 14/M03 A2986 RMK A01 T01391026  RH  032%=      5-min Rain = 0
KGU1 101606Z 26019G30KT 14/M03 A2986 RMK A01 T01401026  RH  032%=      5-min Rain = 0
KGU1 101607Z 24020G29KT 14/M03 A2986 RMK A01 T01401026  RH  032%=      5-min Rain = 0
KGU1 101608Z 25026G33KT 14/M03 A2986 RMK A01 T01401026  RH  032%=      5-min Rain = 0
KGU1 101609Z 27018G23KT 14/M03 A2986 RMK A01 T01401025  RH  032%=      5-min Rain = 0
KGU1 101610Z 25015G24KT 14/M03 A2986 RMK A01 T01401025  RH  032%=      5-min Rain = 0
KGU1 101611Z 27021G32KT 14/M03 A2986 RMK A01 T01411025  RH  032%=      5-min Rain = 0
KGU1 101612Z 27018KT 14/M03 A2986 RMK A01 T01411025  RH  032%=      5-min Rain = 0
KGU1 101613Z 25021G29KT 14/M03 A2986 RMK A01 T01391025  RH  032%=      5-min Rain = 0
KGU1 101614Z 24020G26KT 14/M03 A2986 RMK A01 T01381025  RH  033%=      5-min Rain = 0
KGU1 101615Z 25023G31KT 14/M03 A2986 RMK A01 T01381025  RH  033%=      5-min Rain = 0
KGU1 101616Z 25024G33KT 14/M03 A2986 RMK A01 T01371025  RH  033%=      5-min Rain = 0
KGU1 101617Z 24024G37KT 14/M03 A2986 RMK A01 T01361025  RH  033%=      5-min Rain = 0
KGU1 101618Z 25019G31KT 14/M03 A2986 RMK A01 T01351025  RH  033%=      5-min Rain = 0
KGU1 101619Z 26018G30KT 14/M03 A2986 RMK A01 T01361025  RH  033%=      5-min Rain = 0
KGU1 101620Z 26018G23KT 14/M03 A2986 RMK A01 T01371025  RH  033%=      5-min Rain = 0
KGU1 101621Z 24022G28KT 14/M03 A2986 RMK A01 T01371025  RH  033%=      5-min Rain = 0
KGU1 101622Z 27021G26KT 14/M03 A2987 RMK A01 T01371025  RH  033%=      5-min Rain = 0
KGU1 101623Z 28015KT 14/M03 A2987 RMK A01 T01351025  RH  033%=      5-min Rain = 0
KGU1 101624Z 27014KT 14/M03 A2986 RMK A01 T01351025  RH  033%=      5-min Rain = 0
KGU1 101625Z 27014G19KT 14/M02 A2986 RMK A01 T01351024  RH  033%=      5-min Rain = 0
KGU1 101626Z 23015G20KT 14/M03 A2986 RMK A01 T01361025  RH  033%=      5-min Rain = 0
KGU1 101627Z 27018G26KT 14/M03 A2986 RMK A01 T01371025  RH  033%=      5-min Rain = 0
KGU1 101628Z 28018G24KT 14/M03 A2986 RMK A01 T01371025  RH  033%=      5-min Rain = 0
KGU1 101629Z 27015G20KT 14/M03 A2986 RMK A01 T01381025  RH  033%=      5-min Rain = 0
KGU1 101630Z 23010G15KT 14/M03 A2986 RMK A01 T01381025  RH  033%=      5-min Rain = 0
KGU1 101631Z 24014KT 14/M03 A2986 RMK A01 T01391025  RH  032%=      5-min Rain = 0
KGU1 101632Z 24016KT 14/M03 A2986 RMK A01 T01371025  RH  033%=      5-min Rain = 0
KGU1 101633Z 22015G29KT 14/M03 A2986 RMK A01 T01371025  RH  033%=      5-min Rain = 0
KGU1 101634Z 25018G29KT 14/M03 A2986 RMK A01 T01371026  RH  033%=      5-min Rain = 0
KGU1 101635Z 24015G24KT 14/M03 A2986 RMK A01 T01371025  RH  033%=      5-min Rain = 0
KGU1 101636Z 23019G24KT 14/M03 A2986 RMK A01 T01381026  RH  032%=      5-min Rain = 0
KGU1 101637Z 22021G28KT 14/M03 A2985 RMK A01 T01381026  RH  032%=      5-min Rain = 0
KGU1 101638Z 28018G26KT 14/M03 A2986 RMK A01 T01361026  RH  033%=      5-min Rain = 0
KGU1 101639Z 24016G24KT 14/M03 A2986 RMK A01 T01351026  RH  033%=      5-min Rain = 0
KGU1 101640Z 24021G27KT 14/M03 A2987 RMK A01 T01361026  RH  033%=      5-min Rain = 0
KGU1 101641Z 27015KT 14/M03 A2986 RMK A01 T01351026  RH  033%=      5-min Rain = 0
KGU1 101642Z 24014G19KT 14/M03 A2986 RMK A01 T01351026  RH  033%=      5-min Rain = 0
KGU1 101643Z 24019G33KT 14/M03 A2986 RMK A01 T01361026  RH  033%=      5-min Rain = 0
KGU1 101644Z 22021G28KT 14/M03 A2986 RMK A01 T01351026  RH  033%=      5-min Rain = 0
KGU1 101645Z 23015G23KT 13/M03 A2986 RMK A01 T01341027  RH  033%=      5-min Rain = 0
KGU1 101646Z 26021G37KT 14/M03 A2986 RMK A01 T01351026  RH  033%=      5-min Rain = 0
KGU1 101647Z 25017G26KT 13/M03 A2986 RMK A01 T01341028  RH  033%=      5-min Rain = 0
KGU1 101648Z 23025G38KT 13/M03 A2985 RMK A01 T01341028  RH  033%=      5-min Rain = 0
KGU1 101649Z 24017G27KT 13/M03 A2986 RMK A01 T01331028  RH  033%=      5-min Rain = 0
KGU1 101650Z 24018G26KT 13/M03 A2986 RMK A01 T01341027  RH  033%=      5-min Rain = 0
KGU1 101651Z 24024G33KT 13/M03 A2985 RMK A01 T01341028  RH  033%=      5-min Rain = 0
KGU1 101652Z 24030G40KT 13/M03 A2985 RMK A01 T01331028  RH  033%=      5-min Rain = 0
KGU1 101653Z 25018G24KT 13/M03 A2986 RMK A01 T01321029  RH  033%=      5-min Rain = 0
KGU1 101654Z 23021G28KT 13/M03 A2985 RMK A01 T01321028  RH  033%=      5-min Rain = 0
KGU1 101655Z 23024G32KT 13/M03 A2985 RMK A01 T01331028  RH  033%=      5-min Rain = 0
KGU1 101656Z 24027G38KT 13/M03 A2985 RMK A01 T01341028  RH  033%=      5-min Rain = 0
KGU1 101657Z 24024G37KT 13/M03 A2986 RMK A01 T01321029  RH  033%=      5-min Rain = 0
KGU1 101658Z 24017G27KT 13/M03 A2985 RMK A01 T01311028  RH  033%=      5-min Rain = 0
KGU1 101659Z 23019G27KT 13/M03 A2985 RMK A01 T01321029  RH  033%=      5-min Rain = 0
KGU1 101700Z 24026G37KT 13/M03 A2985 RMK A01 T01331030  RH  033%=      5-min Rain = 0
KGU1 101706Z 24018G25KT 13/M03 A2985 RMK A01 T01311031  RH  033%=      5-min Rain = 0
KGU1 101707Z 23023G33KT 13/M03 A2984 RMK A01 T01321032  RH  032%=      5-min Rain = 0
KGU1 101708Z 24021G37KT 13/M03 A2985 RMK A01 T01321031  RH  032%=      5-min Rain = 0
KGU1 101709Z 25025G38KT 13/M03 A2985 RMK A01 T01321032  RH  032%=      5-min Rain = 0
KGU1 101710Z 27017G27KT 13/M03 A2985 RMK A01 T01311032  RH  032%=      5-min Rain = 0
KGU1 101711Z 25031G40KT 13/M03 A2984 RMK A01 T01311032  RH  033%=      5-min Rain = 0
KGU1 101712Z 27023G30KT 13/M03 A2985 RMK A01 T01301032  RH  033%=      5-min Rain = 0
KGU1 101713Z 26024G37KT 13/M03 A2984 RMK A01 T01311032  RH  033%=      5-min Rain = 0
KGU1 101714Z 25025G32KT 13/M03 A2984 RMK A01 T01311032  RH  032%=      5-min Rain = 0
KGU1 101715Z 24024G42KT 13/M03 A2984 RMK A01 T01311031  RH  032%=      5-min Rain = 0
KGU1 101716Z 26026G32KT 13/M03 A2984 RMK A01 T01321031  RH  032%=      5-min Rain = 0
KGU1 101717Z 24027G43KT 13/M03 A2983 RMK A01 T01321031  RH  032%=      5-min Rain = 0
KGU1 101718Z 25031G44KT 13/M03 A2983 RMK A01 T01311031  RH  033%=      5-min Rain = 0
KGU1 101719Z 25025G34KT 13/M03 A2983 RMK A01 T01311031  RH  033%=      5-min Rain = 0
KGU1 101720Z 26027G33KT 13/M03 A2983 RMK A01 T01321031  RH  032%=      5-min Rain = 0
KGU1 101721Z 26028G37KT 13/M03 A2984 RMK A01 T01321031  RH  032%=      5-min Rain = 0
KGU1 101722Z 25027G38KT 13/M03 A2983 RMK A01 T01321031  RH  033%=      5-min Rain = 0
KGU1 101723Z 24019G26KT 13/M03 A2983 RMK A01 T01301030  RH  033%=      5-min Rain = 0
KGU1 101724Z 26024KT 13/M03 A2983 RMK A01 T01311029  RH  033%=      5-min Rain = 0
KGU1 101725Z 25018G23KT 13/M03 A2983 RMK A01 T01321028  RH  033%=      5-min Rain = 0
KGU1 101726Z 25032G38KT 13/M03 A2983 RMK A01 T01331030  RH  032%=      5-min Rain = 0
KGU1 101727Z 26033G47KT 13/M03 A2983 RMK A01 T01321030  RH  033%=      5-min Rain = 0
KGU1 101728Z 25017G25KT 13/M03 A2983 RMK A01 T01301029  RH  033%=      5-min Rain = 0
KGU1 101729Z 27021G27KT 13/M03 A2983 RMK A01 T01321029  RH  033%=      5-min Rain = 0
KGU1 101730Z 25023G29KT 13/M03 A2983 RMK A01 T01331030  RH  033%=      5-min Rain = 0
KGU1 101731Z 24025G41KT 13/M03 A2983 RMK A01 T01321030  RH  033%=      5-min Rain = 0
KGU1 101732Z 25024G33KT 13/M03 A2983 RMK A01 T01321031  RH  032%=      5-min Rain = 0
KGU1 101733Z 26021G29KT 13/M03 A2983 RMK A01 T01331030  RH  032%=      5-min Rain = 0
KGU1 101734Z 27019G25KT 14/M03 A2984 RMK A01 T01351029  RH  032%=      5-min Rain = 0
KGU1 101735Z 25021G35KT 14/M03 A2983 RMK A01 T01351029  RH  032%=      5-min Rain = 0
KGU1 101736Z 25022G28KT 13/M03 A2983 RMK A01 T01341029  RH  033%=      5-min Rain = 0
KGU1 101737Z 25022G27KT 13/M03 A2983 RMK A01 T01331028  RH  033%=      5-min Rain = 0
KGU1 101738Z 26026G35KT 13/M03 A2983 RMK A01 T01331028  RH  033%=      5-min Rain = 0
KGU1 101739Z 25023G32KT 13/M03 A2983 RMK A01 T01341028  RH  033%=      5-min Rain = 0
KGU1 101740Z 27015KT 14/M03 A2983 RMK A01 T01351027  RH  033%=      5-min Rain = 0
KGU1 101741Z 28020G29KT 14/M03 A2983 RMK A01 T01361029  RH  032%=      5-min Rain = 0
KGU1 101742Z 25024G30KT 13/M03 A2983 RMK A01 T01341028  RH  033%=      5-min Rain = 0
KGU1 101743Z 25023G31KT 13/M03 A2983 RMK A01 T01341028  RH  033%=      5-min Rain = 0
KGU1 101744Z 26030G39KT 13/M03 A2983 RMK A01 T01331028  RH  033%=      5-min Rain = 0
KGU1 101745Z 28031G40KT 13/M03 A2983 RMK A01 T01331029  RH  033%=      5-min Rain = 0
KGU1 101746Z 30020G33KT 13/M03 A2983 RMK A01 T01301029  RH  033%=      5-min Rain = 0
KGU1 101747Z 25019G37KT 13/M03 A2983 RMK A01 T01301028  RH  034%=      5-min Rain = 0
KGU1 101748Z 22027G34KT 13/M03 A2982 RMK A01 T01321028  RH  033%=      5-min Rain = 0
KGU1 101749Z 24021G29KT 13/M03 A2982 RMK A01 T01331029  RH  033%=      5-min Rain = 0
KGU1 101750Z 24017G23KT 13/M03 A2982 RMK A01 T01331029  RH  033%=      5-min Rain = 0
KGU1 101751Z 25026G34KT 13/M03 A2982 RMK A01 T01321029  RH  033%=      5-min Rain = 0
KGU1 101752Z 24022G28KT 13/M03 A2981 RMK A01 T01321029  RH  033%=      5-min Rain = 0
KGU1 101753Z 25028G38KT 13/M03 A2982 RMK A01 T01321030  RH  033%=      5-min Rain = 0
KGU1 101754Z 25024G34KT 13/M03 A2982 RMK A01 T01321029  RH  033%=      5-min Rain = 0
KGU1 101755Z 25020G26KT 13/M03 A2982 RMK A01 T01331029  RH  033%=      5-min Rain = 0
KGU1 101756Z 25026G36KT 13/M03 A2981 RMK A01 T01331030  RH  033%=      5-min Rain = 0
KGU1 101757Z 28028G37KT 13/M03 A2982 RMK A01 T01321031  RH  032%=      5-min Rain = 0
KGU1 101758Z 25028G34KT 13/M03 A2981 RMK A01 T01331030  RH  033%=      5-min Rain = 0
KGU1 101759Z 25025G30KT 13/M03 A2982 RMK A01 T01331032  RH  032%=      5-min Rain = 0
KGU1 101800Z 25029G37KT 13/M03 A2981 RMK A01 T01321033  RH  032%=      5-min Rain = 0
KGU1 101801Z 25025G31KT 13/M03 A2981 RMK A01 T01311033  RH  032%=      5-min Rain = 0
KGU1 101802Z 25032G39KT 13/M03 A2981 RMK A01 T01311034  RH  032%=      5-min Rain = 0
KGU1 101803Z 25029G35KT 13/M04 A2981 RMK A01 T01301035  RH  032%=      5-min Rain = 0
KGU1 101804Z 25028G34KT 13/M03 A2981 RMK A01 T01311034  RH  032%=      5-min Rain = 0
KGU1 101805Z 24030G36KT 13/M04 A2981 RMK A01 T01321035  RH  032%=      5-min Rain = 0
KGU1 101806Z 24025G32KT 13/M03 A298 RMK A01 T01311034  RH  032%=      5-min Rain = 0
KGU1 101807Z 24024G29KT 13/M03 A298 RMK A01 T01321034  RH  032%=      5-min Rain = 0
KGU1 101808Z 24026G34KT 13/M03 A298 RMK A01 T01331034  RH  031%=      5-min Rain = 0
KGU1 101809Z 27024G29KT 13/M03 A2981 RMK A01 T01341033  RH  032%=      5-min Rain = 0
KGU1 101810Z 26019G27KT 14/M03 A2981 RMK A01 T01361033  RH  031%=      5-min Rain = 0
KGU1 101811Z 24019G27KT 14/M03 A298 RMK A01 T01371034  RH  031%=      5-min Rain = 0
KGU1 101812Z 24024KT 14/M03 A298 RMK A01 T01381033  RH  031%=      5-min Rain = 0
KGU1 101813Z 24024G30KT 14/M03 A298 RMK A01 T01391034  RH  030%=      5-min Rain = 0
KGU1 101814Z 23026G38KT 14/M03 A2979 RMK A01 T01381034  RH  030%=      5-min Rain = 0
KGU1 101815Z 25028G33KT 14/M03 A2979 RMK A01 T01391034  RH  030%=      5-min Rain = 0
KGU1 101816Z 24027G37KT 14/M03 A2979 RMK A01 T01381033  RH  031%=      5-min Rain = 0
KGU1 101817Z 24029G34KT 14/M03 A298 RMK A01 T01391033  RH  030%=      5-min Rain = 0
KGU1 101818Z 26022G31KT 14/M03 A298 RMK A01 T01391032  RH  031%=      5-min Rain = 0
KGU1 101819Z 25024G34KT 14/M03 A298 RMK A01 T01401033  RH  030%=      5-min Rain = 0
KGU1 101820Z 24022G32KT 14/M03 A298 RMK A01 T01391033  RH  031%=      5-min Rain = 0
KGU1 101821Z 25027G41KT 14/M03 A2979 RMK A01 T01391033  RH  031%=      5-min Rain = 0
KGU1 101822Z 25023G30KT 14/M03 A298 RMK A01 T01361033  RH  031%=      5-min Rain = 0
KGU1 101823Z 24026G35KT 14/M03 A298 RMK A01 T01351032  RH  032%=      5-min Rain = 0
KGU1 101824Z 24026G35KT 14/M03 A298 RMK A01 T01351032  RH  031%=      5-min Rain = 0
KGU1 101825Z 23023KT 13/M03 A298 RMK A01 T01341032  RH  032%=      5-min Rain = 0
KGU1 101826Z 24018KT 14/M03 A2979 RMK A01 T01361031  RH  032%=      5-min Rain = 0
KGU1 101827Z 23022G37KT 14/M03 A2979 RMK A01 T01381031  RH  031%=      5-min Rain = 0
KGU1 101828Z 24034G40KT 14/M03 A2978 RMK A01 T01381032  RH  031%=      5-min Rain = 0
KGU1 101829Z 27019G25KT 14/M03 A2981 RMK A01 T01381031  RH  031%=      5-min Rain = 0
KGU1 101830Z 26019G27KT 14/M03 A298 RMK A01 T01401029  RH  031%=      5-min Rain = 0
KGU1 101831Z 24023G33KT 14/M03 A2979 RMK A01 T01401030  RH  031%=      5-min Rain = 0
KGU1 101832Z 26027G35KT 14/M03 A2979 RMK A01 T01411030  RH  031%=      5-min Rain = 0
KGU1 101833Z 25021G27KT 14/M03 A298 RMK A01 T01401030  RH  031%=      5-min Rain = 0
KGU1 101834Z 25025G33KT 14/M03 A298 RMK A01 T01411030  RH  031%=      5-min Rain = 0
KGU1 101835Z 25028G37KT 14/M03 A298 RMK A01 T01401030  RH  031%=      5-min Rain = 0
KGU1 101836Z 24027G37KT 14/M03 A2979 RMK A01 T01381031  RH  031%=      5-min Rain = 0
KGU1 101837Z 24026G33KT 14/M03 A2979 RMK A01 T01351031  RH  032%=      5-min Rain = 0
KGU1 101838Z 23022G34KT 13/M03 A298 RMK A01 T01321031  RH  032%=      5-min Rain = 0
KGU1 101839Z 23026G35KT 13/M03 A2979 RMK A01 T01311031  RH  033%=      5-min Rain = 0
KGU1 101840Z 23024G33KT 13/M03 A2979 RMK A01 T01301030  RH  033%=      5-min Rain = 0
KGU1 101841Z 22034G45KT 13/M03 A2978 RMK A01 T01301030  RH  033%=      5-min Rain = 0
KGU1 101842Z 25027G50KT 13/M03 A2979 RMK A01 T01301030  RH  033%=      5-min Rain = 0
KGU1 101843Z 24034G46KT 13/M03 A2979 RMK A01 T01291030  RH  033%=      5-min Rain = 0
KGU1 101844Z 27021G33KT 13/M03 A298 RMK A01 T01271030  RH  034%=      5-min Rain = 0
KGU1 101845Z 25015G25KT 13/M03 A298 RMK A01 T01261030  RH  034%=      5-min Rain = 0
KGU1 101846Z 23021G26KT 13/M03 A298 RMK A01 T01261030  RH  034%=      5-min Rain = 0
KGU1 101847Z 23019G32KT 13/M03 A298 RMK A01 T01261030  RH  034%=      5-min Rain = 0
KGU1 101848Z 23022G35KT 13/M03 A298 RMK A01 T01251030  RH  034%=      5-min Rain = 0
KGU1 101849Z 23019G30KT 12/M03 A2979 RMK A01 T01241029  RH  035%=      5-min Rain = 0
KGU1 101850Z 24022G37KT 12/M03 A298 RMK A01 T01241029  RH  035%=      5-min Rain = 0
KGU1 101851Z 24018G26KT 12/M03 A298 RMK A01 T01231028  RH  035%=      5-min Rain = 0
KGU1 101852Z 25031G39KT 12/M03 A2978 RMK A01 T01221029  RH  035%=      5-min Rain = 0
KGU1 101853Z 24022G37KT 12/M03 A2979 RMK A01 T01231029  RH  035%=      5-min Rain = 0
KGU1 101854Z 25023G29KT 12/M03 A2981 RMK A01 T01231029  RH  035%=      5-min Rain = 0
KGU1 101855Z 24021G30KT 12/M03 A298 RMK A01 T01221029  RH  035%=      5-min Rain = 0
KGU1 101856Z 22025G34KT 12/M03 A2979 RMK A01 T01221029  RH  035%=      5-min Rain = 0
KGU1 101857Z 23030G43KT 12/M03 A2978 RMK A01 T01221028  RH  035%=      5-min Rain = 0
KGU1 101858Z 22022G29KT 12/M03 A2979 RMK A01 T01221028  RH  036%=      5-min Rain = 0
KGU1 101859Z 26024G36KT 12/M03 A298 RMK A01 T01221027  RH  036%=      5-min Rain = 0
KGU1 101900Z 24015G21KT 12/M03 A298 RMK A01 T01211027  RH  036%=      5-min Rain = 0
KGU1 101901Z 22019G27KT 12/M03 A2978 RMK A01 T01211026  RH  036%=      5-min Rain = 0
KGU1 101902Z 24024G35KT 12/M03 A2978 RMK A01 T01221026  RH  036%=      5-min Rain = 0
KGU1 101903Z 22032G40KT 12/M03 A2978 RMK A01 T01221027  RH  036%=      5-min Rain = 0
KGU1 101904Z 22016G24KT 12/M03 A2979 RMK A01 T01211026  RH  036%=      5-min Rain = 0
KGU1 101905Z 22026G38KT 12/M03 A2977 RMK A01 T01211026  RH  036%=      5-min Rain = 0
KGU1 101906Z 24030G35KT 12/M03 A2978 RMK A01 T01211026  RH  036%=      5-min Rain = 0
KGU1 101907Z 25022KT 12/M03 A2979 RMK A01 T01191026  RH  037%=      5-min Rain = 0
KGU1 101908Z 24024G31KT 12/M02 A2979 RMK A01 T01181024  RH  037%=      5-min Rain = 0
KGU1 101909Z 22020G33KT 12/M02 A2978 RMK A01 T01181024  RH  038%=      5-min Rain = 0
KGU1 101910Z 22026G34KT 12/M02 A2977 RMK A01 T01181022  RH  038%=      5-min Rain = 0
KGU1 101911Z 23023G31KT 12/M02 A2978 RMK A01 T01171019  RH  039%=      5-min Rain = 0
KGU1 101912Z 25016G21KT 12/M02 A2979 RMK A01 T01161016  RH  040%=      5-min Rain = 0
KGU1 101913Z 28015G24KT 12/M01 A298 RMK A01 T01161014  RH  041%=      5-min Rain = 0
KGU1 101914Z 29014G20KT 12/M01 A298 RMK A01 T01161009  RH  042%=      5-min Rain = 0
KGU1 101915Z 29026G34KT 11/01 A2981 RMK A01 T01140008  RH  049%=      5-min Rain = 0
KGU1 101916Z 26022G29KT 11/01 A298 RMK A01 T01100009  RH  050%=      5-min Rain = 0
KGU1 101917Z 29026G34KT 11/02 A2982 RMK A01 T01070016  RH  054%=      5-min Rain = 0
KGU1 101918Z 25014G22KT 10/02 A2981 RMK A01 T01030018  RH  056%=      5-min Rain = 0
KGU1 101919Z 26019G28KT 10/02 A298 RMK A01 T01020019  RH  057%=      5-min Rain = 0
KGU1 101920Z 28018G24KT 10/02 A2981 RMK A01 T01000019  RH  058%=      5-min Rain = 0
KGU1 101921Z 30023G32KT 10/02 A2982 RMK A01 T01000018  RH  057%=      5-min Rain = 0
KGU1 101922Z 29022G28KT 10/02 A2981 RMK A01 T00980017  RH  058%=      5-min Rain = 0
KGU1 101923Z 29016G24KT 10/02 A2981 RMK A01 T00970017  RH  058%=      5-min Rain = 0
KGU1 101924Z 28013G19KT 10/02 A2981 RMK A01 T00970018  RH  059%=      5-min Rain = 0
KGU1 101925Z 29019G25KT 10/02 A2982 RMK A01 T00970018  RH  059%=      5-min Rain = 0
KGU1 101926Z 27018KT 09/02 A2981 RMK A01 T00940020  RH  061%=      5-min Rain = 0
KGU1 101927Z 30016G22KT 09/02 A2981 RMK A01 T00920020  RH  061%=      5-min Rain = 0
KGU1 101928Z 29016G21KT 09/02 A2982 RMK A01 T00910021  RH  062%=      5-min Rain = 0
KGU1 101929Z 30018G24KT 09/02 A2982 RMK A01 T00910016  RH  060%=      5-min Rain = 0
KGU1 101930Z 31013KT 09/02 A2982 RMK A01 T00900015  RH  060%=      5-min Rain = 0
KGU1 101931Z 30015KT 09/02 A2982 RMK A01 T00900017  RH  061%=      5-min Rain = 0
KGU1 101932Z 29017G25KT 09/02 A2983 RMK A01 T00880020  RH  063%=      5-min Rain = 0
KGU1 101933Z 31013G19KT 09/02 A2983 RMK A01 T00870020  RH  064%=      5-min Rain = 0
KGU1 101934Z 31013G20KT 09/02 A2982 RMK A01 T00850020  RH  065%=      5-min Rain = 0
KGU1 101935Z 32015G21KT 08/02 A2982 RMK A01 T00830020  RH  065%=      5-min Rain = 0
KGU1 101936Z 30020G26KT 08/02 A2982 RMK A01 T00830020  RH  065%=      5-min Rain = 0
KGU1 101937Z 27020G25KT 08/02 A2983 RMK A01 T00830019  RH  065%=      5-min Rain = 0
KGU1 101938Z 21019KT 08/02 A2981 RMK A01 T00830017  RH  064%=      5-min Rain = 0
KGU1 101939Z 21012G22KT 08/02 A2981 RMK A01 T00830018  RH  064%=      5-min Rain = 0
KGU1 101940Z 31013KT 08/02 A2982 RMK A01 T00820019  RH  065%=      5-min Rain = 0
KGU1 101941Z 32013G19KT 08/02 A2983 RMK A01 T00820021  RH  066%=      5-min Rain = 0
KGU1 101942Z 32015KT 08/02 A2983 RMK A01 T00790023  RH  068%=      5-min Rain = 0
KGU1 101943Z 32014G19KT 08/02 A2983 RMK A01 T00780024  RH  069%=      5-min Rain = 0
KGU1 101944Z 31015G20KT 08/03 A2982 RMK A01 T00760026  RH  071%=      5-min Rain = 0
KGU1 101945Z 32021G26KT 07/03 A2983 RMK A01 T00740028  RH  074%=      5-min Rain = 0
KGU1 101946Z 30021G26KT 07/03 A2983 RMK A01 T00720031  RH  076%=      5-min Rain = 0
KGU1 101947Z 30019G24KT 07/03 A2983 RMK A01 T00700031  RH  077%=      5-min Rain = 0
KGU1 101948Z 30016G22KT 07/03 A2983 RMK A01 T00680033  RH  079%=      5-min Rain = 0
KGU1 101949Z 30018G24KT 07/03 A2983 RMK A01 T00670032  RH  080%=      5-min Rain = 0
KGU1 101950Z 28016G24KT 07/03 A2983 RMK A01 T00660034  RH  081%=      5-min Rain = 0
KGU1 101951Z 29017G22KT 07/03 A2983 RMK A01 T00650034  RH  081%=      5-min Rain = 0
KGU1 101952Z 31020KT 06/03 A2983 RMK A01 T00630032  RH  081%=      5-min Rain = 0
KGU1 101953Z 30018G24KT 06/03 A2983 RMK A01 T00610033  RH  083%=      5-min Rain = 0
KGU1 101954Z 28019G25KT 06/03 A2984 RMK A01 T00600033  RH  084%=      5-min Rain = 0
KGU1 101955Z 28011G16KT 06/03 A2983 RMK A01 T00580027  RH  081%=      5-min Rain = 0
KGU1 101956Z 28020G29KT 06/03 A2984 RMK A01 T00570028  RH  083%=      5-min Rain = 0
KGU1 101957Z 27018G23KT 06/03 A2984 RMK A01 T00550025  RH  082%=      5-min Rain = 0
KGU1 101958Z 27020G33KT 05/03 A2984 RMK A01 T00540026  RH  083%=      5-min Rain = 0
KGU1 101959Z 27026G34KT 05/03 A2984 RMK A01 T00530026  RH  084%=      5-min Rain = 0
KGU1 102000Z 27021G27KT 05/03 A2984 RMK A01 T00520025  RH  084%=      5-min Rain = 0
KGU1 102001Z 25025G30KT 05/02 A2983 RMK A01 T00500023  RH  084%=      5-min Rain = 0
KGU1 102002Z 27019G26KT 05/02 A2983 RMK A01 T00500022  RH  083%=      5-min Rain = 0
KGU1 102003Z 27017G22KT 05/03 A2984 RMK A01 T00490025  RH  085%=      5-min Rain = 0
KGU1 102004Z 28015KT 05/03 A2984 RMK A01 T00490026  RH  086%=      5-min Rain = 0
KGU1 102005Z 27021KT 05/02 A2983 RMK A01 T00480024  RH  085%=      5-min Rain = 0
KGU1 102006Z 26016KT 05/02 A2983 RMK A01 T00480024  RH  086%=      5-min Rain = 0
KGU1 102007Z 27014KT 05/02 A2984 RMK A01 T00470023  RH  085%=      5-min Rain = 0
KGU1 102008Z 30014KT 05/02 A2984 RMK A01 T00470023  RH  086%=      5-min Rain = 0
KGU1 102009Z 27018KT 05/02 A2983 RMK A01 T00460021  RH  085%=      5-min Rain = 0
KGU1 102010Z 28015KT 05/02 A2983 RMK A01 T00450018  RH  084%=      5-min Rain = 0.01
KGU1 102011Z 30018G26KT 04/02 A2984 RMK A01 T00440019  RH  085%=      5-min Rain = 0
KGU1 102012Z 28011KT 04/02 A2983 RMK A01 T00440017  RH  083%=      5-min Rain = 0
KGU1 102013Z 29016G21KT 04/02 A2983 RMK A01 T00440018  RH  084%=      5-min Rain = 0
KGU1 102014Z 30015KT 04/02 A2983 RMK A01 T00430018  RH  085%=      5-min Rain = 0
KGU1 102015Z 30015G22KT 04/02 A2984 RMK A01 T00430017  RH  084%=      5-min Rain = 0.01
KGU1 102016Z 31014G23KT 04/02 A2983 RMK A01 T00410015  RH  084%=      5-min Rain = 0.01
KGU1 102017Z 29017G28KT 04/01 A2984 RMK A01 T00400013  RH  084%=      5-min Rain = 0.01
KGU1 102018Z 27024G37KT 04/01 A2983 RMK A01 T00390011  RH  083%=      5-min Rain = 0.01
KGU1 102019Z 27012G23KT 04/01 A2983 RMK A01 T00380008  RH  082%=      5-min Rain = 0.01
KGU1 102020Z 28009KT 04/01 A2983 RMK A01 T00360007  RH  082%=      5-min Rain = 0.01
KGU1 102021Z 29015G23KT 03/01 A2983 RMK A01 T00340005  RH  082%=      5-min Rain = 0
KGU1 102022Z 31016G21KT 03/00 A2983 RMK A01 T00310003  RH  083%=      5-min Rain = 0.01
KGU1 102023Z 29016KT 03/00 A2983 RMK A01 T00280002  RH  083%=      5-min Rain = 0.01
KGU1 102024Z 28013KT 03/00 A2983 RMK A01 T00250001  RH  085%=      5-min Rain = 0.01
KGU1 102025Z 27015G25KT 02/00 A2984 RMK A01 T00230001  RH  086%=      5-min Rain = 0.01
KGU1 102026Z 28020G29KT 02/00 A2984 RMK A01 T00220001  RH  087%=      5-min Rain = 0.01
KGU1 102027Z 27017G25KT 02/00 A2983 RMK A01 T002200-0  RH  086%=      5-min Rain = 0.01
KGU1 102028Z 27015KT 02/00 A2983 RMK A01 T002200-0  RH  086%=      5-min Rain = 0.02
KGU1 102029Z 29016KT 02/00 A2984 RMK A01 T00220000  RH  087%=      5-min Rain = 0.01
KGU1 102030Z 28017G24KT 02/00 A2983 RMK A01 T00210002  RH  088%=      5-min Rain = 0.01
KGU1 102031Z 29014G23KT 02/00 A2983 RMK A01 T00220002  RH  088%=      5-min Rain = 0.01
KGU1 102032Z 30017G31KT 02/00 A2984 RMK A01 T00240002  RH  086%=      5-min Rain = 0.02
KGU1 102033Z 29024G33KT 03/00 A2983 RMK A01 T00250000  RH  085%=      5-min Rain = 0.01
KGU1 102034Z 30025G33KT 03/00 A2983 RMK A01 T00250000  RH  085%=      5-min Rain = 0.02
KGU1 102035Z 27012G20KT 03/00 A2983 RMK A01 T00250001  RH  085%=      5-min Rain = 0.01
KGU1 102036Z 29012G18KT 03/00 A2982 RMK A01 T00250001  RH  086%=      5-min Rain = 0.01
KGU1 102037Z 27018G26KT 03/00 A2983 RMK A01 T00250002  RH  086%=      5-min Rain = 0.01
KGU1 102038Z 27017G26KT 03/00 A2983 RMK A01 T00270002  RH  085%=      5-min Rain = 0
KGU1 102039Z 29018G23KT 03/00 A2983 RMK A01 T00270003  RH  085%=      5-min Rain = 0.01
KGU1 102040Z 27019G27KT 03/00 A2983 RMK A01 T00290004  RH  085%=      5-min Rain = 0.01
KGU1 102041Z 27017G23KT 03/01 A2983 RMK A01 T00290005  RH  085%=      5-min Rain = 0
KGU1 102042Z 30019G27KT 03/01 A2982 RMK A01 T00290005  RH  085%=      5-min Rain = 0.01
KGU1 102043Z 31024G36KT 03/00 A2982 RMK A01 T00300003  RH  084%=      5-min Rain = 0
KGU1 102044Z 30024G36KT 03/00 A2982 RMK A01 T00290003  RH  084%=      5-min Rain = 0.01
KGU1 102045Z 31025G34KT 03/00 A2983 RMK A01 T00280002  RH  084%=      5-min Rain = 0.01
KGU1 102046Z 29027G36KT 03/00 A2982 RMK A01 T00260001  RH  084%=      5-min Rain = 0.01
KGU1 102047Z 30025G31KT 03/00 A2982 RMK A01 T00250001  RH  085%=      5-min Rain = 0.01
KGU1 102048Z 29025KT 02/00 A2982 RMK A01 T00230001  RH  086%=      5-min Rain = 0.02
KGU1 102049Z 30019G30KT 02/00 A2982 RMK A01 T00230000  RH  086%=      5-min Rain = 0.01
KGU1 102050Z 29023G36KT 02/00 A2983 RMK A01 T002200-0  RH  086%=      5-min Rain = 0.01
KGU1 102051Z 25024G34KT 02/M00 A2981 RMK A01 T00241001  RH  084%=      5-min Rain = 0.01
KGU1 102052Z 30015G20KT 03/00 A2981 RMK A01 T002700-0  RH  083%=      5-min Rain = 0.01
KGU1 102053Z 29018G28KT 03/00 A2981 RMK A01 T00270002  RH  084%=      5-min Rain = 0
KGU1 102054Z 25015G21KT 03/00 A2981 RMK A01 T00260003  RH  085%=      5-min Rain = 0.01
KGU1 102055Z 27012G18KT 03/00 A2981 RMK A01 T00260003  RH  086%=      5-min Rain = 0.01
KGU1 102056Z 27012G17KT 03/00 A298 RMK A01 T00260004  RH  087%=      5-min Rain = 0
KGU1 102057Z 28015G27KT 03/01 A298 RMK A01 T00270005  RH  087%=      5-min Rain = 0
KGU1 102058Z 25013KT 03/01 A298 RMK A01 T00270005  RH  086%=      5-min Rain = 0.01
KGU1 102059Z 29013KT 03/01 A298 RMK A01 T00290005  RH  085%=      5-min Rain = 0
KGU1 102100Z 29021G30KT 03/00 A2981 RMK A01 T00300004  RH  084%=      5-min Rain = 0
KGU1 102101Z 27013KT 03/00 A298 RMK A01 T00320004  RH  083%=      5-min Rain = 0.01
KGU1 102102Z 26012KT 03/00 A298 RMK A01 T00320004  RH  083%=      5-min Rain = 0
KGU1 102103Z 28012G18KT 03/00 A2979 RMK A01 T00320004  RH  082%=      5-min Rain = 0
KGU1 102104Z 29009KT 03/00 A2979 RMK A01 T00330003  RH  081%=      5-min Rain = 0.01
KGU1 102105Z 27015G23KT 03/00 A2979 RMK A01 T00340004  RH  082%=      5-min Rain = 0
KGU1 102106Z 25015KT 03/00 A2979 RMK A01 T00330003  RH  082%=      5-min Rain = 0
KGU1 102107Z 26011G16KT 03/00 A2979 RMK A01 T00340003  RH  081%=      5-min Rain = 0
KGU1 102108Z 29014G24KT 03/00 A298 RMK A01 T00340004  RH  082%=      5-min Rain = 0.01
KGU1 102109Z 26015G22KT 04/00 A2979 RMK A01 T00350003  RH  080%=      5-min Rain = 0
KGU1 102110Z 25013G18KT 04/00 A2979 RMK A01 T00360003  RH  080%=      5-min Rain = 0
KGU1 102111Z 26016G24KT 04/00 A2979 RMK A01 T00370000  RH  078%=      5-min Rain = 0
KGU1 102112Z 24015KT 04/00 A2978 RMK A01 T00390001  RH  077%=      5-min Rain = 0.01
KGU1 102113Z 26013G18KT 04/00 A2979 RMK A01 T00390001  RH  077%=      5-min Rain = 0
KGU1 102114Z 25014G20KT 04/00 A2979 RMK A01 T00400002  RH  077%=      5-min Rain = 0
KGU1 102115Z 26015G20KT 04/00 A2979 RMK A01 T00400003  RH  077%=      5-min Rain = 0
KGU1 102116Z 28020G31KT 04/00 A2979 RMK A01 T00400003  RH  077%=      5-min Rain = 0.01
KGU1 102117Z 26014G19KT 04/00 A2979 RMK A01 T00410001  RH  076%=      5-min Rain = 0
KGU1 102118Z 26016G23KT 04/00 A2979 RMK A01 T00410002  RH  077%=      5-min Rain = 0
KGU1 102119Z 26012KT 04/01 A298 RMK A01 T00410005  RH  078%=      5-min Rain = 0
KGU1 102120Z 26010KT 04/01 A2979 RMK A01 T00410005  RH  078%=      5-min Rain = 0
KGU1 102121Z 25013KT 04/01 A298 RMK A01 T00410005  RH  078%=      5-min Rain = 0
KGU1 102122Z 25011G17KT 04/01 A2979 RMK A01 T00420005  RH  078%=      5-min Rain = 0
KGU1 102123Z 25013G19KT 04/00 A2979 RMK A01 T00420004  RH  077%=      5-min Rain = 0
KGU1 102124Z 25013G25KT 04/00 A298 RMK A01 T00430002  RH  075%=      5-min Rain = 0
KGU1 102125Z 22014G23KT 04/00 A2979 RMK A01 T00440001  RH  075%=      5-min Rain = 0
KGU1 102126Z 25013G18KT 04/00 A298 RMK A01 T00440004  RH  076%=      5-min Rain = 0
KGU1 102127Z 25012KT 04/01 A298 RMK A01 T00440007  RH  078%=      5-min Rain = 0
KGU1 102128Z 23016G23KT 04/00 A2979 RMK A01 T00440004  RH  076%=      5-min Rain = 0
KGU1 102129Z 23012G24KT 05/00 A2979 RMK A01 T00450001  RH  074%=      5-min Rain = 0
KGU1 102130Z 24014G19KT 05/00 A2979 RMK A01 T00460003  RH  074%=      5-min Rain = 0.01
KGU1 102131Z 24017KT 05/00 A2979 RMK A01 T00460004  RH  075%=      5-min Rain = 0
KGU1 102132Z 22011G20KT 05/01 A298 RMK A01 T00460006  RH  076%=      5-min Rain = 0
KGU1 102133Z 23015G23KT 05/01 A2979 RMK A01 T00460006  RH  076%=      5-min Rain = 0
KGU1 102134Z 21015G21KT 05/00 A2979 RMK A01 T00470001  RH  073%=      5-min Rain = 0
KGU1 102135Z 25011G16KT 05/00 A298 RMK A01 T00480003  RH  074%=      5-min Rain = 0
KGU1 102136Z 25010KT 05/01 A2979 RMK A01 T00480005  RH  075%=      5-min Rain = 0
KGU1 102137Z 25013KT 05/01 A298 RMK A01 T00470007  RH  076%=      5-min Rain = 0
KGU1 102138Z 22007KT 05/01 A2979 RMK A01 T00470008  RH  077%=      5-min Rain = 0
KGU1 102139Z 23009KT 05/01 A2979 RMK A01 T00460007  RH  077%=      5-min Rain = 0
KGU1 102140Z 24010KT 05/01 A2979 RMK A01 T00460006  RH  077%=      5-min Rain = 0
KGU1 102141Z 26010G18KT 05/01 A298 RMK A01 T00460007  RH  077%=      5-min Rain = 0
KGU1 102142Z 24010G15KT 05/00 A2979 RMK A01 T00470001  RH  073%=      5-min Rain = 0
KGU1 102143Z 24013G20KT 05/M00 A2979 RMK A01 T00481002  RH  071%=      5-min Rain = 0
KGU1 102144Z 25012KT 05/M00 A2979 RMK A01 T00501002  RH  070%=      5-min Rain = 0
KGU1 102145Z 23012KT 05/00 A2979 RMK A01 T00510001  RH  071%=      5-min Rain = 0
KGU1 102146Z 23012KT 05/M00 A2979 RMK A01 T00511001  RH  070%=      5-min Rain = 0
KGU1 102147Z 22012G17KT 05/00 A2979 RMK A01 T00510000  RH  070%=      5-min Rain = 0
KGU1 102148Z 23016G21KT 05/M00 A2979 RMK A01 T00521001  RH  070%=      5-min Rain = 0
KGU1 102149Z 22010G20KT 05/M01 A2978 RMK A01 T00531005  RH  067%=      5-min Rain = 0
KGU1 102150Z 24011G17KT 05/M00 A2979 RMK A01 T00541002  RH  068%=      5-min Rain = 0
KGU1 102151Z 23015G26KT 05/00 A2979 RMK A01 T005300-0  RH  069%=      5-min Rain = 0
KGU1 102152Z 24010KT 05/M00 A2979 RMK A01 T00531002  RH  068%=      5-min Rain = 0
KGU1 102153Z 27010G16KT 05/00 A2979 RMK A01 T00530004  RH  071%=      5-min Rain = 0
KGU1 102154Z 25014G22KT 05/M00 A2979 RMK A01 T00531002  RH  069%=      5-min Rain = 0
KGU1 102155Z 27010G16KT 05/00 A2978 RMK A01 T00530002  RH  070%=      5-min Rain = 0
KGU1 102156Z 26012KT 05/00 A2979 RMK A01 T00530004  RH  072%=      5-min Rain = 0
KGU1 102157Z 24015G21KT 05/00 A2979 RMK A01 T00520002  RH  071%=      5-min Rain = 0
KGU1 102158Z 23013KT 05/01 A2979 RMK A01 T00520005  RH  073%=      5-min Rain = 0
KGU1 102159Z 23007G14KT 05/01 A2979 RMK A01 T00510005  RH  073%=      5-min Rain = 0
KGU1 102200Z 28011G20KT 05/01 A2978 RMK A01 T00500006  RH  074%=      5-min Rain = 0
KGU1 102201Z 27012KT 05/01 A2978 RMK A01 T00510007  RH  074%=      5-min Rain = 0
KGU1 102202Z 27013G18KT 05/01 A2978 RMK A01 T00510005  RH  073%=      5-min Rain = 0
KGU1 102203Z 30018G25KT 05/01 A2979 RMK A01 T00520006  RH  073%=      5-min Rain = 0
KGU1 102204Z 27014G20KT 05/01 A2978 RMK A01 T00530006  RH  073%=      5-min Rain = 0
KGU1 102205Z 23012KT 05/01 A2978 RMK A01 T00520007  RH  074%=      5-min Rain = 0
KGU1 102206Z 22008KT 05/01 A2977 RMK A01 T00520009  RH  075%=      5-min Rain = 0
KGU1 102207Z 24008KT 05/01 A2978 RMK A01 T00510010  RH  076%=      5-min Rain = 0
KGU1 102208Z 21011KT 05/01 A2978 RMK A01 T00520010  RH  076%=      5-min Rain = 0
KGU1 102209Z 22012KT 05/01 A2977 RMK A01 T00510011  RH  076%=      5-min Rain = 0
KGU1 102210Z 23015G20KT 05/01 A2978 RMK A01 T00510012  RH  077%=      5-min Rain = 0
KGU1 102211Z 23010G15KT 05/01 A2978 RMK A01 T00500013  RH  078%=      5-min Rain = 0
KGU1 102212Z 24012G18KT 05/02 A2978 RMK A01 T00500016  RH  080%=      5-min Rain = 0
KGU1 102213Z 20017KT 05/01 A2977 RMK A01 T00490013  RH  078%=      5-min Rain = 0
KGU1 102214Z 20013G18KT 05/01 A2977 RMK A01 T00500014  RH  078%=      5-min Rain = 0
KGU1 102215Z 23014G20KT 05/02 A2978 RMK A01 T00490016  RH  080%=      5-min Rain = 0
KGU1 102216Z 23012KT 05/02 A2978 RMK A01 T00480018  RH  082%=      5-min Rain = 0
KGU1 102217Z 23017KT 05/02 A2978 RMK A01 T00480019  RH  082%=      5-min Rain = 0
KGU1 102218Z 23017G27KT 05/02 A2978 RMK A01 T00480019  RH  083%=      5-min Rain = 0
KGU1 102219Z 25015G21KT 05/02 A2979 RMK A01 T00480017  RH  081%=      5-min Rain = 0
KGU1 102220Z 27013G19KT 05/02 A2978 RMK A01 T00490015  RH  079%=      5-min Rain = 0
KGU1 102221Z 28012KT 05/02 A2979 RMK A01 T00500015  RH  079%=      5-min Rain = 0
KGU1 102222Z 22013G23KT 05/02 A2979 RMK A01 T00510016  RH  079%=      5-min Rain = 0
KGU1 102223Z 23016G26KT 05/02 A2979 RMK A01 T00510019  RH  081%=      5-min Rain = 0
KGU1 102224Z 22010KT 05/02 A2978 RMK A01 T00510021  RH  082%=      5-min Rain = 0
KGU1 102225Z 22006KT 05/02 A2978 RMK A01 T00500024  RH  084%=      5-min Rain = 0
KGU1 102226Z 19009G19KT 05/02 A2978 RMK A01 T00500023  RH  084%=      5-min Rain = 0
KGU1 102227Z 30017G27KT 05/02 A2979 RMK A01 T00500020  RH  082%=      5-min Rain = 0
KGU1 102228Z 25018G25KT 05/02 A2979 RMK A01 T00510019  RH  081%=      5-min Rain = 0
KGU1 102229Z 23007KT 05/02 A2979 RMK A01 T00520020  RH  081%=      5-min Rain = 0
KGU1 102230Z 27009G18KT 05/02 A2979 RMK A01 T00520019  RH  080%=      5-min Rain = 0
KGU1 102231Z 24015G22KT 05/02 A2978 RMK A01 T00520016  RH  078%=      5-min Rain = 0
KGU1 102232Z 19011G17KT 05/01 A2978 RMK A01 T00540011  RH  075%=      5-min Rain = 0
KGU1 102233Z 19012G17KT 06/01 A2978 RMK A01 T00550014  RH  076%=      5-min Rain = 0
KGU1 102234Z 24011KT 05/02 A2978 RMK A01 T00540018  RH  078%=      5-min Rain = 0
KGU1 102235Z 27009G15KT 05/02 A2978 RMK A01 T00540021  RH  080%=      5-min Rain = 0
KGU1 102236Z 26007G16KT 05/02 A2978 RMK A01 T00540021  RH  081%=      5-min Rain = 0
KGU1 102237Z 24012G18KT 05/02 A2978 RMK A01 T00530019  RH  080%=      5-min Rain = 0
KGU1 102238Z 25009G14KT 05/01 A2978 RMK A01 T00540014  RH  076%=      5-min Rain = 0
KGU1 102239Z 29009KT 06/02 A2978 RMK A01 T00550016  RH  077%=      5-min Rain = 0
KGU1 102240Z 26007KT 06/02 A2978 RMK A01 T00550016  RH  077%=      5-min Rain = 0
KGU1 102241Z 27008G16KT 06/02 A2978 RMK A01 T00560017  RH  077%=      5-min Rain = 0
KGU1 102242Z 28012G19KT 06/02 A2979 RMK A01 T00560019  RH  078%=      5-min Rain = 0
KGU1 102243Z 19016G29KT 06/02 A2978 RMK A01 T00560018  RH  078%=      5-min Rain = 0
KGU1 102244Z 20018G24KT 06/01 A2977 RMK A01 T00570011  RH  073%=      5-min Rain = 0
KGU1 102245Z 22015G23KT 06/01 A2979 RMK A01 T00580010  RH  072%=      5-min Rain = 0
KGU1 102246Z 22015G22KT 06/01 A2978 RMK A01 T00590012  RH  073%=      5-min Rain = 0
KGU1 102247Z 24019G25KT 06/02 A2978 RMK A01 T00590015  RH  074%=      5-min Rain = 0
KGU1 102248Z 20014KT 06/02 A2979 RMK A01 T00590015  RH  074%=      5-min Rain = 0
KGU1 102249Z 22014G26KT 06/02 A2979 RMK A01 T00590017  RH  075%=      5-min Rain = 0
KGU1 102250Z 21018G28KT 06/02 A2978 RMK A01 T00590015  RH  074%=      5-min Rain = 0
KGU1 102251Z 22017G24KT 06/01 A2979 RMK A01 T00600012  RH  072%=      5-min Rain = 0
KGU1 102252Z 20010G19KT 06/01 A2979 RMK A01 T00610009  RH  070%=      5-min Rain = 0
KGU1 102253Z 25012G18KT 06/01 A2979 RMK A01 T00620009  RH  070%=      5-min Rain = 0
KGU1 102254Z 24009G15KT 06/01 A2979 RMK A01 T00630006  RH  068%=      5-min Rain = 0
KGU1 102255Z 20010G16KT 06/01 A2979 RMK A01 T00630007  RH  068%=      5-min Rain = 0
KGU1 102256Z 20007G13KT 06/01 A2979 RMK A01 T00630010  RH  069%=      5-min Rain = 0
KGU1 102257Z 21014KT 06/01 A2979 RMK A01 T00630009  RH  069%=      5-min Rain = 0
KGU1 102258Z 20011KT 06/01 A2979 RMK A01 T00630010  RH  069%=      5-min Rain = 0
KGU1 102259Z 21012KT 06/01 A2979 RMK A01 T00630008  RH  068%=      5-min Rain = 0
KGU1 102300Z 18009G16KT 06/01 A2979 RMK A01 T00640008  RH  068%=      5-min Rain = 0
KGU1 102301Z 14004G9KT 06/01 A2979 RMK A01 T00640008  RH  068%=      5-min Rain = 0
KGU1 102302Z 35008KT 06/01 A2979 RMK A01 T00640008  RH  068%=      5-min Rain = 0
KGU1 102303Z 26004KT 06/01 A2979 RMK A01 T00640008  RH  068%=      5-min Rain = 0
KGU1 102304Z 26006KT 06/01 A2979 RMK A01 T00640009  RH  069%=      5-min Rain = 0
KGU1 102305Z 28006G11KT 06/01 A2979 RMK A01 T00640010  RH  069%=      5-min Rain = 0
KGU1 102306Z 27005KT 06/01 A2979 RMK A01 T00640009  RH  068%=      5-min Rain = 0
KGU1 102307Z 27005KT 06/01 A298 RMK A01 T00640010  RH  069%=      5-min Rain = 0
KGU1 102308Z 26006KT 06/01 A298 RMK A01 T00640010  RH  069%=      5-min Rain = 0
KGU1 102309Z 28012G18KT 06/01 A298 RMK A01 T00640010  RH  069%=      5-min Rain = 0
KGU1 102310Z 29013G22KT 07/01 A298 RMK A01 T00650005  RH  066%=      5-min Rain = 0
KGU1 102311Z 25006KT 07/00 A298 RMK A01 T00660003  RH  065%=      5-min Rain = 0
KGU1 102312Z 30006KT 07/00 A2979 RMK A01 T00660002  RH  065%=      5-min Rain = 0
KGU1 102313Z 25002KT 07/00 A2979 RMK A01 T00670002  RH  064%=      5-min Rain = 0
KGU1 102314Z 34002KT 07/00 A2979 RMK A01 T00670002  RH  064%=      5-min Rain = 0
KGU1 102315Z 33006KT 07/01 A2979 RMK A01 T00660005  RH  066%=      5-min Rain = 0
KGU1 102316Z 28010KT 07/00 A2979 RMK A01 T00660004  RH  065%=      5-min Rain = 0
KGU1 102317Z 29010KT 07/01 A2979 RMK A01 T00660007  RH  066%=      5-min Rain = 0
KGU1 102318Z 32022G42KT 07/00 A298 RMK A01 T00670001  RH  063%=      5-min Rain = 0
KGU1 102319Z 30013G22KT 07/00 A2979 RMK A01 T00680002  RH  064%=      5-min Rain = 0
KGU1 102320Z 32004KT 07/00 A2979 RMK A01 T00680001  RH  063%=      5-min Rain = 0
KGU1 102321Z 18003KT 07/00 A2979 RMK A01 T00680001  RH  063%=      5-min Rain = 0
KGU1 102322Z 21002KT 07/00 A2979 RMK A01 T00680001  RH  063%=      5-min Rain = 0
KGU1 102323Z 18001KT 07/00 A298 RMK A01 T00680002  RH  063%=      5-min Rain = 0
KGU1 102324Z 18003KT 07/00 A298 RMK A01 T00680004  RH  064%=      5-min Rain = 0
KGU1 102325Z 24006KT 07/01 A298 RMK A01 T00680005  RH  065%=      5-min Rain = 0
KGU1 102326Z 17005KT 07/01 A298 RMK A01 T00680006  RH  066%=      5-min Rain = 0
KGU1 102327Z 23008G14KT 07/01 A2979 RMK A01 T00670005  RH  065%=      5-min Rain = 0
KGU1 102328Z 23014KT 07/01 A2979 RMK A01 T00670005  RH  065%=      5-min Rain = 0
KGU1 102329Z 20009KT 07/00 A2979 RMK A01 T00670003  RH  064%=      5-min Rain = 0
KGU1 102330Z 20014KT 07/01 A2979 RMK A01 T00670007  RH  066%=      5-min Rain = 0
KGU1 102331Z 23010KT 07/00 A298 RMK A01 T00670004  RH  065%=      5-min Rain = 0
KGU1 102332Z 24006KT 07/01 A298 RMK A01 T00670005  RH  065%=      5-min Rain = 0
KGU1 102333Z 26005KT 07/00 A298 RMK A01 T00670003  RH  064%=      5-min Rain = 0
KGU1 102334Z 21004KT 07/00 A298 RMK A01 T00680001  RH  063%=      5-min Rain = 0
KGU1 102335Z 20003KT 07/01 A298 RMK A01 T00680006  RH  065%=      5-min Rain = 0
KGU1 102336Z 24006KT 07/01 A298 RMK A01 T00680006  RH  066%=      5-min Rain = 0
KGU1 102337Z 24007KT 07/00 A298 RMK A01 T00670002  RH  064%=      5-min Rain = 0
KGU1 102338Z 15004G9KT 07/00 A298 RMK A01 T00680003  RH  064%=      5-min Rain = 0
KGU1 102339Z 27005KT 07/01 A298 RMK A01 T00680005  RH  065%=      5-min Rain = 0
KGU1 102340Z 32010KT 07/00 A298 RMK A01 T00680002  RH  064%=      5-min Rain = 0
KGU1 102341Z 25006KT 07/00 A298 RMK A01 T00680003  RH  064%=      5-min Rain = 0
KGU1 102342Z 22003KT 07/01 A2979 RMK A01 T00680006  RH  065%=      5-min Rain = 0
KGU1 102343Z 28005KT 07/01 A298 RMK A01 T00680007  RH  066%=      5-min Rain = 0
KGU1 102344Z 26008KT 07/00 A298 RMK A01 T00670004  RH  065%=      5-min Rain = 0
KGU1 102345Z 24008KT 07/00 A298 RMK A01 T00670001  RH  063%=      5-min Rain = 0
KGU1 102346Z 25010KT 07/01 A298 RMK A01 T00680009  RH  067%=      5-min Rain = 0
KGU1 102347Z 22005G13KT 07/01 A2979 RMK A01 T00680013  RH  069%=      5-min Rain = 0
KGU1 102348Z 26003KT 07/01 A2979 RMK A01 T00670014  RH  069%=      5-min Rain = 0
KGU1 102349Z 23006KT 07/01 A2979 RMK A01 T00670006  RH  066%=      5-min Rain = 0
KGU1 102350Z 25009KT 07/01 A298 RMK A01 T00670009  RH  067%=      5-min Rain = 0
KGU1 102351Z 25004KT 07/01 A2979 RMK A01 T00670009  RH  067%=      5-min Rain = 0
KGU1 102352Z 28007KT 07/01 A298 RMK A01 T00670008  RH  067%=      5-min Rain = 0
KGU1 102353Z 28005G10KT 07/01 A298 RMK A01 T00670009  RH  067%=      5-min Rain = 0
KGU1 102354Z 25005KT 07/01 A298 RMK A01 T00670007  RH  066%=      5-min Rain = 0
KGU1 102355Z 25009KT 07/01 A2979 RMK A01 T00670005  RH  065%=      5-min Rain = 0
KGU1 102356Z 22005KT 07/00 A298 RMK A01 T00670002  RH  064%=      5-min Rain = 0
KGU1 102357Z 23007G12KT 07/00 A298 RMK A01 T00680004  RH  065%=      5-min Rain = 0
KGU1 102358Z 29007KT 07/00 A298 RMK A01 T00680001  RH  063%=      5-min Rain = 0
KGU1 102359Z 30010KT 07/00 A298 RMK A01 T00680000  RH  062%=      5-min Rain = 0
KGU1 110000Z 27011KT 07/00 A298 RMK A01 T00680000  RH  063%=      5-min Rain = 0
KGU1 110001Z 25014G20KT 07/00 A298 RMK A01 T006800-0  RH  062%=      5-min Rain = 0
KGU1 110002Z 26010KT 07/M00 A298 RMK A01 T00681002  RH  061%=      5-min Rain = 0
KGU1 110003Z 24007G12KT 07/M01 A298 RMK A01 T00691007  RH  059%=      5-min Rain = 0
KGU1 110004Z 25008G13KT 07/M00 A298 RMK A01 T00691004  RH  060%=      5-min Rain = 0
KGU1 110005Z 28013G18KT 07/M00 A298 RMK A01 T00691003  RH  061%=      5-min Rain = 0
KGU1 110006Z 27014G19KT 07/M00 A298 RMK A01 T00691004  RH  060%=      5-min Rain = 0
KGU1 110007Z 31024G32KT 07/M00 A298 RMK A01 T00691004  RH  060%=      5-min Rain = 0
KGU1 110008Z 26019G30KT 07/M01 A298 RMK A01 T00701007  RH  059%=      5-min Rain = 0
KGU1 110009Z 21010G15KT 07/M01 A2979 RMK A01 T00701006  RH  059%=      5-min Rain = 0
KGU1 110010Z 23014G21KT 07/M00 A2979 RMK A01 T00691004  RH  060%=      5-min Rain = 0
KGU1 110011Z 24011G16KT 07/M01 A2979 RMK A01 T00691006  RH  059%=      5-min Rain = 0
KGU1 110012Z 29013KT 07/M01 A298 RMK A01 T00691007  RH  059%=      5-min Rain = 0
KGU1 110013Z 31020G33KT 07/M01 A2981 RMK A01 T00701008  RH  058%=      5-min Rain = 0
KGU1 110014Z 32026G31KT 07/M01 A298 RMK A01 T00701008  RH  058%=      5-min Rain = 0
KGU1 110015Z 23014KT 07/M01 A298 RMK A01 T00701007  RH  059%=      5-min Rain = 0
KGU1 110016Z 26011KT 07/M01 A298 RMK A01 T00701008  RH  058%=      5-min Rain = 0
KGU1 110017Z 24015KT 07/M01 A298 RMK A01 T00691007  RH  059%=      5-min Rain = 0
KGU1 110018Z 24012G19KT 07/M01 A298 RMK A01 T00691008  RH  059%=      5-min Rain = 0
KGU1 110019Z 26009KT 07/M01 A298 RMK A01 T00701009  RH  058%=      5-min Rain = 0
KGU1 110020Z 28012KT 07/M01 A298 RMK A01 T00691007  RH  059%=      5-min Rain = 0
KGU1 110021Z 27010KT 07/M01 A2981 RMK A01 T00691005  RH  060%=      5-min Rain = 0
KGU1 110022Z 29013KT 07/M01 A298 RMK A01 T00681005  RH  060%=      5-min Rain = 0
KGU1 110023Z 27015G23KT 07/M01 A2981 RMK A01 T00681007  RH  059%=      5-min Rain = 0
KGU1 110024Z 28008KT 07/M01 A2981 RMK A01 T00681007  RH  059%=      5-min Rain = 0
KGU1 110025Z 25009G15KT 07/M01 A298 RMK A01 T00681007  RH  059%=      5-min Rain = 0
KGU1 110026Z 29011KT 07/M01 A2981 RMK A01 T00681007  RH  060%=      5-min Rain = 0
KGU1 110027Z 29012G19KT 07/M01 A298 RMK A01 T00681008  RH  059%=      5-min Rain = 0
KGU1 110028Z 29013G19KT 07/M01 A298 RMK A01 T00681008  RH  059%=      5-min Rain = 0
KGU1 110029Z 29014G24KT 07/M01 A2981 RMK A01 T00671007  RH  060%=      5-min Rain = 0
KGU1 110030Z 30017G24KT 07/M01 A2981 RMK A01 T00671010  RH  059%=      5-min Rain = 0
KGU1 110031Z 28010KT 07/M01 A298 RMK A01 T00681009  RH  059%=      5-min Rain = 0
KGU1 110032Z 29020G27KT 07/M01 A2981 RMK A01 T00681010  RH  058%=      5-min Rain = 0
KGU1 110033Z 26016G21KT 07/M01 A298 RMK A01 T00681009  RH  058%=      5-min Rain = 0
KGU1 110034Z 25016G21KT 07/M01 A2981 RMK A01 T00671010  RH  059%=      5-min Rain = 0
KGU1 110035Z 20011G18KT 07/M01 A298 RMK A01 T00681012  RH  058%=      5-min Rain = 0
KGU1 110036Z 29019G30KT 07/M01 A2981 RMK A01 T00671008  RH  059%=      5-min Rain = 0
KGU1 110037Z 28013G23KT 07/M01 A2981 RMK A01 T00671013  RH  057%=      5-min Rain = 0
KGU1 110038Z 26013G20KT 07/M01 A2981 RMK A01 T00681011  RH  058%=      5-min Rain = 0
KGU1 110039Z 23011KT 07/M01 A298 RMK A01 T00681010  RH  058%=      5-min Rain = 0
KGU1 110040Z 22014G22KT 07/M01 A298 RMK A01 T00671011  RH  058%=      5-min Rain = 0
KGU1 110041Z 23015G21KT 07/M01 A2981 RMK A01 T00671011  RH  058%=      5-min Rain = 0
KGU1 110042Z 27013G19KT 07/M01 A2981 RMK A01 T00671011  RH  058%=      5-min Rain = 0
KGU1 110043Z 27015G20KT 07/M01 A298 RMK A01 T00671012  RH  058%=      5-min Rain = 0
KGU1 110044Z 26015G32KT 07/M01 A2981 RMK A01 T00661010  RH  059%=      5-min Rain = 0
KGU1 110045Z 29019G36KT 07/M01 A2981 RMK A01 T00671014  RH  057%=      5-min Rain = 0
KGU1 110046Z 27011KT 07/M01 A2981 RMK A01 T00671014  RH  057%=      5-min Rain = 0
KGU1 110047Z 30011G17KT 07/M01 A2981 RMK A01 T00671011  RH  058%=      5-min Rain = 0
KGU1 110048Z 27012KT 07/M01 A2981 RMK A01 T00651009  RH  060%=      5-min Rain = 0
KGU1 110049Z 24016G23KT 07/M01 A298 RMK A01 T00651011  RH  059%=      5-min Rain = 0
KGU1 110050Z 25020G27KT 07/M01 A2981 RMK A01 T00651013  RH  058%=      5-min Rain = 0
KGU1 110051Z 26015KT 07/M01 A298 RMK A01 T00661013  RH  058%=      5-min Rain = 0
KGU1 110052Z 25015KT 07/M01 A298 RMK A01 T00661012  RH  058%=      5-min Rain = 0
KGU1 110053Z 23012G17KT 07/M01 A298 RMK A01 T00661010  RH  059%=      5-min Rain = 0
KGU1 110054Z 25016G23KT 07/M01 A298 RMK A01 T00651011  RH  059%=      5-min Rain = 0
KGU1 110055Z 26016G22KT 07/M01 A298 RMK A01 T00651012  RH  058%=      5-min Rain = 0
KGU1 110056Z 26015G21KT 07/M01 A2981 RMK A01 T00661010  RH  059%=      5-min Rain = 0
KGU1 110057Z 24016G24KT 07/M01 A298 RMK A01 T00651012  RH  058%=      5-min Rain = 0
KGU1 110058Z 21019G34KT 07/M01 A298 RMK A01 T00661014  RH  057%=      5-min Rain = 0
KGU1 110059Z 22017G27KT 07/M01 A298 RMK A01 T00671013  RH  057%=      5-min Rain = 0
KGU1 110100Z 23017G29KT 07/M01 A298 RMK A01 T00671012  RH  058%=      5-min Rain = 0
KGU1 110101Z 25012KT 07/M01 A298 RMK A01 T00671011  RH  058%=      5-min Rain = 0
KGU1 110102Z 26012KT 07/M01 A2981 RMK A01 T00661010  RH  059%=      5-min Rain = 0
KGU1 110103Z 27009KT 07/M01 A298 RMK A01 T00651010  RH  059%=      5-min Rain = 0
KGU1 110104Z 27014KT 07/M01 A2981 RMK A01 T00651011  RH  059%=      5-min Rain = 0
KGU1 110105Z 25021G31KT 07/M01 A2981 RMK A01 T00651011  RH  059%=      5-min Rain = 0
KGU1 110106Z 26019G33KT 07/M01 A2981 RMK A01 T00661011  RH  059%=      5-min Rain = 0
KGU1 110107Z 28019G26KT 07/M01 A2981 RMK A01 T00651011  RH  059%=      5-min Rain = 0
KGU1 110108Z 29016G21KT 07/M01 A2981 RMK A01 T00651011  RH  059%=      5-min Rain = 0
KGU1 110109Z 28014G19KT 06/M01 A2981 RMK A01 T00641009  RH  060%=      5-min Rain = 0
KGU1 110110Z 29022G29KT 06/M01 A2981 RMK A01 T00631010  RH  060%=      5-min Rain = 0
KGU1 110111Z 28022G28KT 06/M01 A2981 RMK A01 T00641010  RH  060%=      5-min Rain = 0
KGU1 110112Z 27019G26KT 06/M01 A2981 RMK A01 T00631009  RH  061%=      5-min Rain = 0
KGU1 110113Z 26017G24KT 06/M01 A2981 RMK A01 T00631009  RH  060%=      5-min Rain = 0
KGU1 110114Z 24016G25KT 06/M01 A298 RMK A01 T00641011  RH  059%=      5-min Rain = 0
KGU1 110115Z 27021G28KT 06/M01 A2981 RMK A01 T00641011  RH  059%=      5-min Rain = 0
KGU1 110116Z 25018KT 06/M01 A298 RMK A01 T00641010  RH  060%=      5-min Rain = 0
KGU1 110117Z 26027G38KT 07/M01 A298 RMK A01 T00651012  RH  059%=      5-min Rain = 0
KGU1 110118Z 26019G25KT 07/M01 A298 RMK A01 T00651012  RH  059%=      5-min Rain = 0
KGU1 110119Z 27022G28KT 07/M01 A298 RMK A01 T00651011  RH  059%=      5-min Rain = 0
KGU1 110120Z 27025G35KT 07/M01 A2981 RMK A01 T00651010  RH  060%=      5-min Rain = 0
KGU1 110121Z 27020KT 07/M01 A2981 RMK A01 T00651009  RH  060%=      5-min Rain = 0
KGU1 110122Z 26017G22KT 06/M01 A298 RMK A01 T00641010  RH  060%=      5-min Rain = 0
KGU1 110123Z 27019KT 06/M01 A2981 RMK A01 T00641009  RH  060%=      5-min Rain = 0
KGU1 110124Z 27024G32KT 06/M01 A298 RMK A01 T00631008  RH  061%=      5-min Rain = 0
KGU1 110125Z 27022G29KT 06/M01 A298 RMK A01 T00631008  RH  061%=      5-min Rain = 0
KGU1 110126Z 24021G26KT 06/M01 A298 RMK A01 T00631009  RH  060%=      5-min Rain = 0
KGU1 110127Z 24020G28KT 06/M01 A298 RMK A01 T00641009  RH  060%=      5-min Rain = 0
KGU1 110128Z 27019KT 06/M01 A298 RMK A01 T00641009  RH  060%=      5-min Rain = 0
KGU1 110129Z 27021G26KT 06/M01 A298 RMK A01 T00631008  RH  061%=      5-min Rain = 0
KGU1 110130Z 26018G24KT 06/M01 A298 RMK A01 T00631008  RH  061%=      5-min Rain = 0
KGU1 110131Z 28021G30KT 06/M01 A298 RMK A01 T00631007  RH  061%=      5-min Rain = 0
KGU1 110132Z 27021G26KT 06/M01 A298 RMK A01 T00631007  RH  062%=      5-min Rain = 0
KGU1 110133Z 27022G31KT 06/M01 A298 RMK A01 T00621006  RH  062%=      5-min Rain = 0
KGU1 110134Z 26020KT 06/M01 A298 RMK A01 T00621007  RH  062%=      5-min Rain = 0
KGU1 110135Z 27024G35KT 06/M01 A298 RMK A01 T00621008  RH  062%=      5-min Rain = 0
KGU1 110136Z 27024G34KT 06/M01 A298 RMK A01 T00631007  RH  061%=      5-min Rain = 0
KGU1 110137Z 28028G35KT 06/M01 A298 RMK A01 T00631007  RH  061%=      5-min Rain = 0
KGU1 110138Z 26028G35KT 06/M01 A298 RMK A01 T00631007  RH  061%=      5-min Rain = 0
KGU1 110139Z 27024G30KT 06/M01 A298 RMK A01 T00631006  RH  062%=      5-min Rain = 0
KGU1 110140Z 26020G26KT 06/M01 A2979 RMK A01 T00631006  RH  062%=      5-min Rain = 0
KGU1 110141Z 27023G32KT 06/M01 A298 RMK A01 T00621005  RH  063%=      5-min Rain = 0
KGU1 110142Z 27022KT 06/M01 A2979 RMK A01 T00621006  RH  062%=      5-min Rain = 0
KGU1 110143Z 27024G29KT 06/M01 A298 RMK A01 T00621005  RH  063%=      5-min Rain = 0
KGU1 110144Z 27019G29KT 06/M00 A2979 RMK A01 T00611004  RH  063%=      5-min Rain = 0
KGU1 110145Z 26026G31KT 06/M00 A2979 RMK A01 T00611004  RH  064%=      5-min Rain = 0
KGU1 110146Z 26023G34KT 06/M01 A2979 RMK A01 T00621005  RH  063%=      5-min Rain = 0
KGU1 110147Z 27027G37KT 06/M01 A2979 RMK A01 T00621005  RH  063%=      5-min Rain = 0
KGU1 110148Z 26023G29KT 06/M00 A2979 RMK A01 T00621004  RH  063%=      5-min Rain = 0
KGU1 110149Z 25027G40KT 06/M01 A2978 RMK A01 T00621005  RH  063%=      5-min Rain = 0
KGU1 110150Z 26022KT 06/M01 A2979 RMK A01 T00621005  RH  063%=      5-min Rain = 0
KGU1 110151Z 26024G30KT 06/M00 A2978 RMK A01 T00621004  RH  064%=      5-min Rain = 0
KGU1 110152Z 26024G30KT 06/M00 A2978 RMK A01 T00621004  RH  064%=      5-min Rain = 0
KGU1 110153Z 27027G37KT 06/M00 A2979 RMK A01 T00611003  RH  064%=      5-min Rain = 0
KGU1 110154Z 25028G39KT 06/M00 A2978 RMK A01 T00621004  RH  063%=      5-min Rain = 0
KGU1 110155Z 29027G33KT 06/M00 A2979 RMK A01 T00621003  RH  064%=      5-min Rain = 0
KGU1 110156Z 26031G38KT 06/M00 A2978 RMK A01 T00621004  RH  064%=      5-min Rain = 0
KGU1 110157Z 26031G41KT 06/M01 A2978 RMK A01 T00631005  RH  063%=      5-min Rain = 0
KGU1 110158Z 26025G31KT 06/M01 A2978 RMK A01 T00631005  RH  062%=      5-min Rain = 0
KGU1 110159Z 26032G46KT 06/M01 A2978 RMK A01 T00631005  RH  062%=      5-min Rain = 0
KGU1 110200Z 26031G38KT 06/M01 A2978 RMK A01 T00641006  RH  062%=      5-min Rain = 0
KGU1 110201Z 29027G38KT 06/M00 A2979 RMK A01 T00631003  RH  063%=      5-min Rain = 0
KGU1 110202Z 25032G44KT 06/M00 A2978 RMK A01 T00631004  RH  063%=      5-min Rain = 0
KGU1 110203Z 26028KT 06/M01 A2978 RMK A01 T00631006  RH  062%=      5-min Rain = 0
KGU1 110204Z 27027G39KT 06/M01 A2979 RMK A01 T00631005  RH  063%=      5-min Rain = 0
KGU1 110205Z 27029G41KT 06/M01 A2979 RMK A01 T00621006  RH  062%=      5-min Rain = 0
KGU1 110206Z 26027G34KT 06/M01 A2978 RMK A01 T00631010  RH  060%=      5-min Rain = 0
KGU1 110207Z 28029G44KT 06/M01 A2978 RMK A01 T00631007  RH  062%=      5-min Rain = 0
KGU1 110208Z 28031G42KT 06/M01 A2979 RMK A01 T00631008  RH  061%=      5-min Rain = 0
KGU1 110209Z 27034G44KT 06/M01 A2979 RMK A01 T00621009  RH  061%=      5-min Rain = 0
KGU1 110210Z 27024G35KT 06/M01 A2979 RMK A01 T00631009  RH  061%=      5-min Rain = 0
KGU1 110211Z 28027G38KT 06/M01 A2979 RMK A01 T00621010  RH  060%=      5-min Rain = 0
KGU1 110212Z 27025G31KT 06/M01 A2978 RMK A01 T00621010  RH  061%=      5-min Rain = 0
KGU1 110213Z 27027G38KT 06/M01 A2979 RMK A01 T00621012  RH  060%=      5-min Rain = 0
KGU1 110214Z 25029G36KT 06/M01 A2978 RMK A01 T00621013  RH  059%=      5-min Rain = 0
KGU1 110215Z 28025G32KT 06/M01 A2979 RMK A01 T00621013  RH  059%=      5-min Rain = 0
KGU1 110216Z 27025G33KT 06/M01 A2978 RMK A01 T00621013  RH  059%=      5-min Rain = 0
KGU1 110217Z 26025G35KT 06/M01 A2978 RMK A01 T00621014  RH  059%=      5-min Rain = 0
KGU1 110218Z 26026G42KT 06/M02 A2977 RMK A01 T00621016  RH  058%=      5-min Rain = 0
KGU1 110219Z 26027G32KT 06/M02 A2978 RMK A01 T00621015  RH  058%=      5-min Rain = 0
KGU1 110220Z 27027G40KT 06/M02 A2979 RMK A01 T00621016  RH  058%=      5-min Rain = 0
KGU1 110221Z 25023G34KT 06/M02 A2978 RMK A01 T00621017  RH  058%=      5-min Rain = 0
KGU1 110222Z 28032G40KT 06/M02 A2979 RMK A01 T00621016  RH  058%=      5-min Rain = 0
KGU1 110223Z 27031G39KT 06/M02 A2978 RMK A01 T00621016  RH  058%=      5-min Rain = 0
KGU1 110224Z 23026G37KT 06/M02 A2977 RMK A01 T00621017  RH  058%=      5-min Rain = 0
KGU1 110225Z 24030G37KT 06/M02 A2977 RMK A01 T00621018  RH  057%=      5-min Rain = 0
KGU1 110226Z 29032G41KT 06/M02 A2979 RMK A01 T00631018  RH  057%=      5-min Rain = 0
KGU1 110227Z 28032G39KT 06/M02 A2979 RMK A01 T00621017  RH  057%=      5-min Rain = 0
KGU1 110228Z 26027G34KT 06/M02 A2979 RMK A01 T00621017  RH  058%=      5-min Rain = 0
KGU1 110229Z 28025G30KT 06/M02 A2979 RMK A01 T00621017  RH  058%=      5-min Rain = 0
KGU1 110230Z 28027G37KT 06/M02 A2979 RMK A01 T00611018  RH  057%=      5-min Rain = 0
KGU1 110231Z 28030G42KT 06/M02 A2979 RMK A01 T00611018  RH  058%=      5-min Rain = 0
KGU1 110232Z 28029G36KT 06/M02 A2979 RMK A01 T00611018  RH  058%=      5-min Rain = 0
KGU1 110233Z 25027G41KT 06/M02 A2978 RMK A01 T00611020  RH  057%=      5-min Rain = 0
KGU1 110234Z 26022G29KT 06/M02 A2979 RMK A01 T00621019  RH  057%=      5-min Rain = 0
KGU1 110235Z 28032G43KT 06/M02 A2979 RMK A01 T00611019  RH  057%=      5-min Rain = 0
KGU1 110236Z 27034G43KT 06/M02 A2978 RMK A01 T00621020  RH  056%=      5-min Rain = 0
KGU1 110237Z 28027G38KT 06/M02 A2979 RMK A01 T00611020  RH  057%=      5-min Rain = 0
KGU1 110238Z 26029G47KT 06/M02 A2977 RMK A01 T00611021  RH  056%=      5-min Rain = 0
KGU1 110239Z 27026G32KT 06/M02 A2978 RMK A01 T00611020  RH  056%=      5-min Rain = 0
KGU1 110240Z 27022G31KT 06/M02 A2979 RMK A01 T00611020  RH  057%=      5-min Rain = 0
KGU1 110241Z 27031G40KT 06/M02 A2978 RMK A01 T00601021  RH  057%=      5-min Rain = 0
KGU1 110242Z 28028G37KT 06/M02 A2978 RMK A01 T00611021  RH  056%=      5-min Rain = 0
KGU1 110243Z 26031G47KT 06/M02 A2977 RMK A01 T00601022  RH  056%=      5-min Rain = 0
KGU1 110244Z 25031G43KT 06/M02 A2977 RMK A01 T00611023  RH  055%=      5-min Rain = 0
KGU1 110245Z 25030G38KT 06/M02 A2977 RMK A01 T00621023  RH  055%=      5-min Rain = 0
KGU1 110246Z 25034G49KT 06/M02 A2977 RMK A01 T00621023  RH  055%=      5-min Rain = 0
KGU1 110247Z 27034G46KT 06/M02 A2977 RMK A01 T00621023  RH  055%=      5-min Rain = 0
KGU1 110248Z 28027G35KT 06/M02 A2978 RMK A01 T00621022  RH  056%=      5-min Rain = 0
KGU1 110249Z 26027KT 06/M02 A2977 RMK A01 T00611021  RH  056%=      5-min Rain = 0
KGU1 110250Z 26031G45KT 06/M02 A2977 RMK A01 T00611023  RH  055%=      5-min Rain = 0
KGU1 110251Z 26035G49KT 06/M02 A2976 RMK A01 T00621023  RH  055%=      5-min Rain = 0
KGU1 110252Z 27032G38KT 06/M02 A2977 RMK A01 T00611022  RH  056%=      5-min Rain = 0
KGU1 110253Z 28027G32KT 06/M02 A2977 RMK A01 T00611021  RH  056%=      5-min Rain = 0
KGU1 110254Z 28027G37KT 06/M02 A2977 RMK A01 T00601021  RH  057%=      5-min Rain = 0
KGU1 110255Z 27030G36KT 06/M02 A2977 RMK A01 T00591021  RH  057%=      5-min Rain = 0
KGU1 110256Z 26028G41KT 06/M02 A2976 RMK A01 T00591021  RH  057%=      5-min Rain = 0
KGU1 110257Z 28035G43KT 06/M02 A2976 RMK A01 T00601023  RH  056%=      5-min Rain = 0
KGU1 110258Z 28037G48KT 06/M02 A2977 RMK A01 T00601023  RH  056%=      5-min Rain = 0
KGU1 110259Z 28034G40KT 06/M02 A2977 RMK A01 T00611022  RH  056%=      5-min Rain = 0
KGU1 110300Z 28033G43KT 06/M02 A2977 RMK A01 T00611022  RH  056%=      5-min Rain = 0
KGU1 110301Z 26037G50KT 06/M03 A2976 RMK A01 T00611025  RH  055%=      5-min Rain = 0
KGU1 110302Z 28036G50KT 06/M03 A2976 RMK A01 T00621025  RH  054%=      5-min Rain = 0
KGU1 110303Z 28030G35KT 06/M02 A2977 RMK A01 T00621023  RH  055%=      5-min Rain = 0
KGU1 110304Z 28034G52KT 06/M02 A2977 RMK A01 T00611024  RH  055%=      5-min Rain = 0
KGU1 110305Z 28035G41KT 06/M03 A2977 RMK A01 T00621025  RH  055%=      5-min Rain = 0
KGU1 110306Z 28038G48KT 06/M02 A2977 RMK A01 T00621024  RH  055%=      5-min Rain = 0
KGU1 110307Z 27031G39KT 06/M02 A2976 RMK A01 T00621024  RH  055%=      5-min Rain = 0
KGU1 110308Z 28034G41KT 06/M02 A2977 RMK A01 T00621024  RH  055%=      5-min Rain = 0
KGU1 110309Z 28034G48KT 06/M02 A2976 RMK A01 T00621023  RH  055%=      5-min Rain = 0
KGU1 110310Z 27029G45KT 06/M02 A2977 RMK A01 T00621023  RH  055%=      5-min Rain = 0
KGU1 110311Z 27033G40KT 06/M02 A2976 RMK A01 T00611023  RH  055%=      5-min Rain = 0
KGU1 110312Z 27033G50KT 06/M02 A2976 RMK A01 T00611024  RH  055%=      5-min Rain = 0
KGU1 110313Z 27028G36KT 06/M02 A2976 RMK A01 T00611024  RH  055%=      5-min Rain = 0
KGU1 110314Z 27036G46KT 06/M03 A2976 RMK A01 T00621025  RH  054%=      5-min Rain = 0
KGU1 110315Z 27030G35KT 06/M02 A2976 RMK A01 T00621024  RH  055%=      5-min Rain = 0
KGU1 110316Z 28036G43KT 06/M02 A2976 RMK A01 T00621024  RH  055%=      5-min Rain = 0
KGU1 110317Z 27026G33KT 06/M02 A2976 RMK A01 T00621024  RH  055%=      5-min Rain = 0
KGU1 110318Z 26036G42KT 06/M03 A2975 RMK A01 T00621026  RH  054%=      5-min Rain = 0
KGU1 110319Z 26035G47KT 06/M03 A2975 RMK A01 T00631025  RH  054%=      5-min Rain = 0
KGU1 110320Z 26033G41KT 06/M03 A2975 RMK A01 T00631025  RH  054%=      5-min Rain = 0
KGU1 110321Z 27034G39KT 06/M03 A2975 RMK A01 T00631025  RH  054%=      5-min Rain = 0
KGU1 110322Z 28032G40KT 06/M02 A2976 RMK A01 T00631024  RH  054%=      5-min Rain = 0
KGU1 110323Z 27029G36KT 06/M02 A2976 RMK A01 T00621024  RH  054%=      5-min Rain = 0
KGU1 110324Z 26035G42KT 06/M03 A2975 RMK A01 T00631026  RH  054%=      5-min Rain = 0
KGU1 110325Z 26034G47KT 06/M03 A2975 RMK A01 T00631025  RH  054%=      5-min Rain = 0
KGU1 110326Z 27033G42KT 06/M03 A2976 RMK A01 T00641025  RH  054%=      5-min Rain = 0
KGU1 110327Z 27034G45KT 06/M03 A2976 RMK A01 T00631025  RH  054%=      5-min Rain = 0
KGU1 110328Z 27034G39KT 06/M03 A2976 RMK A01 T00631025  RH  054%=      5-min Rain = 0
KGU1 110329Z 27027G34KT 06/M03 A2976 RMK A01 T00631025  RH  054%=      5-min Rain = 0
KGU1 110330Z 26033G45KT 06/M03 A2975 RMK A01 T00631025  RH  054%=      5-min Rain = 0
KGU1 110331Z 26035G47KT 06/M03 A2975 RMK A01 T00631026  RH  053%=      5-min Rain = 0
KGU1 110332Z 26031G40KT 06/M03 A2976 RMK A01 T00631025  RH  054%=      5-min Rain = 0
KGU1 110333Z 26035G43KT 06/M03 A2975 RMK A01 T00631026  RH  054%=      5-min Rain = 0
KGU1 110334Z 27040G50KT 06/M03 A2975 RMK A01 T00631027  RH  053%=      5-min Rain = 0
KGU1 110335Z 26037G44KT 06/M03 A2975 RMK A01 T00641027  RH  053%=      5-min Rain = 0
KGU1 110336Z 26035G44KT 06/M03 A2974 RMK A01 T00641027  RH  053%=      5-min Rain = 0
KGU1 110337Z 27035G45KT 06/M03 A2975 RMK A01 T00631026  RH  053%=      5-min Rain = 0
KGU1 110338Z 26040G45KT 06/M03 A2974 RMK A01 T00631026  RH  053%=      5-min Rain = 0
KGU1 110339Z 26036G43KT 06/M03 A2975 RMK A01 T00631026  RH  053%=      5-min Rain = 0
KGU1 110340Z 26040G52KT 06/M03 A2974 RMK A01 T00631027  RH  053%=      5-min Rain = 0
KGU1 110341Z 27038G49KT 06/M03 A2974 RMK A01 T00641027  RH  053%=      5-min Rain = 0
KGU1 110342Z 27033G39KT 06/M03 A2975 RMK A01 T00631025  RH  054%=      5-min Rain = 0
KGU1 110343Z 26038G48KT 06/M03 A2975 RMK A01 T00631026  RH  054%=      5-min Rain = 0
KGU1 110344Z 26039G45KT 06/M03 A2973 RMK A01 T00631027  RH  053%=      5-min Rain = 0
KGU1 110345Z 26036G56KT 06/M03 A2973 RMK A01 T00631026  RH  053%=      5-min Rain = 0
KGU1 110346Z 26036G50KT 06/M03 A2974 RMK A01 T00631026  RH  053%=      5-min Rain = 0
KGU1 110347Z 26037G48KT 06/M03 A2973 RMK A01 T00631026  RH  053%=      5-min Rain = 0
KGU1 110348Z 26037G44KT 06/M03 A2973 RMK A01 T00631026  RH  053%=      5-min Rain = 0
KGU1 110349Z 26030G46KT 06/M03 A2974 RMK A01 T00631026  RH  053%=      5-min Rain = 0
KGU1 110350Z 26039G49KT 06/M03 A2973 RMK A01 T00631026  RH  053%=      5-min Rain = 0
KGU1 110351Z 26037G49KT 06/M03 A2973 RMK A01 T00631026  RH  054%=      5-min Rain = 0
KGU1 110352Z 27037G45KT 06/M03 A2973 RMK A01 T00631026  RH  054%=      5-min Rain = 0
KGU1 110353Z 27036G50KT 06/M03 A2973 RMK A01 T00631025  RH  054%=      5-min Rain = 0
KGU1 110354Z 26036G46KT 06/M03 A2974 RMK A01 T00621025  RH  054%=      5-min Rain = 0
KGU1 110355Z 26043G52KT 06/M03 A2973 RMK A01 T00621025  RH  054%=      5-min Rain = 0
KGU1 110356Z 26038G50KT 06/M03 A2973 RMK A01 T00621025  RH  054%=      5-min Rain = 0
KGU1 110357Z 27041G50KT 06/M03 A2973 RMK A01 T00621025  RH  054%=      5-min Rain = 0
KGU1 110358Z 25036G47KT 06/M03 A2973 RMK A01 T00621025  RH  054%=      5-min Rain = 0
KGU1 110359Z 27041G50KT 06/M03 A2973 RMK A01 T00621025  RH  054%=      5-min Rain = 0
KGU1 110400Z 26038G44KT 06/M02 A2973 RMK A01 T00621024  RH  055%=      5-min Rain = 0
KGU1 110401Z 26041G51KT 06/M02 A2972 RMK A01 T00621024  RH  055%=      5-min Rain = 0
KGU1 110402Z 26039G56KT 06/M02 A2972 RMK A01 T00621024  RH  055%=      5-min Rain = 0
KGU1 110403Z 26035G47KT 06/M02 A2973 RMK A01 T00621024  RH  055%=      5-min Rain = 0
KGU1 110404Z 26039G46KT 06/M02 A2972 RMK A01 T00621024  RH  055%=      5-min Rain = 0
KGU1 110405Z 26041G53KT 06/M02 A2973 RMK A01 T00621024  RH  055%=      5-min Rain = 0
KGU1 110406Z 27042G57KT 06/M02 A2973 RMK A01 T00611023  RH  055%=      5-min Rain = 0
KGU1 110407Z 26048G53KT 06/M02 A2972 RMK A01 T00621024  RH  055%=      5-min Rain = 0
KGU1 110408Z 26039G51KT 06/M02 A2973 RMK A01 T00621023  RH  055%=      5-min Rain = 0
KGU1 110409Z 27044G50KT 06/M02 A2973 RMK A01 T00621024  RH  055%=      5-min Rain = 0
KGU1 110410Z 27041G46KT 06/M02 A2973 RMK A01 T00621022  RH  055%=      5-min Rain = 0
KGU1 110411Z 26033G51KT 06/M02 A2973 RMK A01 T00611022  RH  056%=      5-min Rain = 0
KGU1 110412Z 27037G45KT 06/M02 A2973 RMK A01 T00611022  RH  056%=      5-min Rain = 0
KGU1 110413Z 26040G51KT 06/M02 A2973 RMK A01 T00611023  RH  056%=      5-min Rain = 0
KGU1 110414Z 27042G52KT 06/M02 A2973 RMK A01 T00611023  RH  056%=      5-min Rain = 0
KGU1 110415Z 26039G49KT 06/M02 A2972 RMK A01 T00611023  RH  056%=      5-min Rain = 0
KGU1 110416Z 26045G59KT 06/M02 A2973 RMK A01 T00611023  RH  056%=      5-min Rain = 0
KGU1 110417Z 26040G49KT 06/M02 A2973 RMK A01 T00611022  RH  056%=      5-min Rain = 0
KGU1 110418Z 27040G48KT 06/M02 A2974 RMK A01 T00611022  RH  056%=      5-min Rain = 0
KGU1 110419Z 27037G48KT 06/M02 A2973 RMK A01 T00601021  RH  056%=      5-min Rain = 0
KGU1 110420Z 26034G44KT 06/M02 A2974 RMK A01 T00601022  RH  056%=      5-min Rain = 0
KGU1 110421Z 26041G49KT 06/M02 A2972 RMK A01 T00601022  RH  056%=      5-min Rain = 0
KGU1 110422Z 26041G49KT 06/M02 A2972 RMK A01 T00611022  RH  056%=      5-min Rain = 0
KGU1 110423Z 26038G45KT 06/M02 A2973 RMK A01 T00601021  RH  056%=      5-min Rain = 0
KGU1 110424Z 26039G54KT 06/M02 A2972 RMK A01 T00601021  RH  056%=      5-min Rain = 0
KGU1 110425Z 27037G46KT 06/M02 A2974 RMK A01 T00601021  RH  057%=      5-min Rain = 0
KGU1 110426Z 26045G61KT 06/M02 A2973 RMK A01 T00601021  RH  057%=      5-min Rain = 0
KGU1 110427Z 27039G50KT 06/M02 A2973 RMK A01 T00601021  RH  056%=      5-min Rain = 0
KGU1 110428Z 27039G47KT 06/M02 A2973 RMK A01 T00601020  RH  057%=      5-min Rain = 0
KGU1 110429Z 27036G45KT 06/M02 A2973 RMK A01 T00591020  RH  057%=      5-min Rain = 0
KGU1 110430Z 27038G46KT 06/M02 A2974 RMK A01 T00591019  RH  058%=      5-min Rain = 0
KGU1 110431Z 27040G53KT 06/M02 A2973 RMK A01 T00591020  RH  058%=      5-min Rain = 0
KGU1 110432Z 27040G52KT 06/M02 A2973 RMK A01 T00591020  RH  057%=      5-min Rain = 0
KGU1 110433Z 27039G51KT 06/M02 A2973 RMK A01 T00591020  RH  058%=      5-min Rain = 0
KGU1 110434Z 28034G47KT 06/M02 A2974 RMK A01 T00581019  RH  058%=      5-min Rain = 0
KGU1 110435Z 27033G48KT 06/M02 A2974 RMK A01 T00581019  RH  058%=      5-min Rain = 0
KGU1 110436Z 27032G42KT 06/M02 A2974 RMK A01 T00581019  RH  058%=      5-min Rain = 0
KGU1 110437Z 27036G57KT 06/M02 A2974 RMK A01 T00581019  RH  059%=      5-min Rain = 0
KGU1 110438Z 27039G46KT 06/M02 A2974 RMK A01 T00581020  RH  058%=      5-min Rain = 0
KGU1 110439Z 28034G44KT 06/M02 A2975 RMK A01 T00581018  RH  058%=      5-min Rain = 0
KGU1 110440Z 27035G42KT 06/M02 A2975 RMK A01 T00571018  RH  059%=      5-min Rain = 0
KGU1 110441Z 28033G39KT 06/M02 A2976 RMK A01 T00571018  RH  059%=      5-min Rain = 0
KGU1 110442Z 28033G39KT 06/M02 A2976 RMK A01 T00571018  RH  059%=      5-min Rain = 0
KGU1 110443Z 28031G43KT 06/M02 A2976 RMK A01 T00561017  RH  060%=      5-min Rain = 0
KGU1 110444Z 28033G41KT 06/M02 A2977 RMK A01 T00561018  RH  059%=      5-min Rain = 0
KGU1 110445Z 27032G38KT 06/M02 A2976 RMK A01 T00571017  RH  060%=      5-min Rain = 0
KGU1 110446Z 28034G43KT 06/M02 A2977 RMK A01 T00561018  RH  059%=      5-min Rain = 0
KGU1 110447Z 27028G35KT 06/M02 A2976 RMK A01 T00561018  RH  059%=      5-min Rain = 0
KGU1 110448Z 27028G37KT 06/M02 A2976 RMK A01 T00561018  RH  060%=      5-min Rain = 0
KGU1 110449Z 28031G39KT 06/M02 A2976 RMK A01 T00561017  RH  060%=      5-min Rain = 0
KGU1 110450Z 27034G47KT 06/M02 A2976 RMK A01 T00561017  RH  060%=      5-min Rain = 0
KGU1 110451Z 27035G41KT 06/M02 A2976 RMK A01 T00561017  RH  060%=      5-min Rain = 0
KGU1 110452Z 28034G39KT 06/M02 A2976 RMK A01 T00561017  RH  060%=      5-min Rain = 0
KGU1 110453Z 28032G48KT 06/M02 A2976 RMK A01 T00561017  RH  060%=      5-min Rain = 0
KGU1 110454Z 28036G41KT 06/M02 A2976 RMK A01 T00561017  RH  060%=      5-min Rain = 0
KGU1 110455Z 28032G40KT 06/M02 A2977 RMK A01 T00561016  RH  061%=      5-min Rain = 0
KGU1 110456Z 28034G45KT 06/M02 A2977 RMK A01 T00561016  RH  061%=      5-min Rain = 0
KGU1 110457Z 28035G42KT 06/M02 A2976 RMK A01 T00561016  RH  061%=      5-min Rain = 0
KGU1 110458Z 28034G40KT 06/M02 A2977 RMK A01 T00561016  RH  061%=      5-min Rain = 0
KGU1 110459Z 28035G45KT 06/M02 A2976 RMK A01 T00561016  RH  061%=      5-min Rain = 0
KGU1 110500Z 27032G40KT 06/M02 A2976 RMK A01 T00551015  RH  061%=      5-min Rain = 0
KGU1 110501Z 28036G46KT 06/M02 A2976 RMK A01 T00561015  RH  061%=      5-min Rain = 0
KGU1 110502Z 28038G49KT 06/M02 A2976 RMK A01 T00561015  RH  061%=      5-min Rain = 0
KGU1 110503Z 28035G41KT 06/M02 A2977 RMK A01 T00561015  RH  061%=      5-min Rain = 0
KGU1 110504Z 29038G48KT 06/M01 A2977 RMK A01 T00561014  RH  061%=      5-min Rain = 0
KGU1 110505Z 29033G45KT 06/M01 A2977 RMK A01 T00561014  RH  062%=      5-min Rain = 0
KGU1 110506Z 28032G39KT 06/M01 A2977 RMK A01 T00561014  RH  062%=      5-min Rain = 0
KGU1 110507Z 28032G42KT 06/M01 A2977 RMK A01 T00551013  RH  062%=      5-min Rain = 0
KGU1 110508Z 29035G47KT 06/M01 A2977 RMK A01 T00551013  RH  062%=      5-min Rain = 0
KGU1 110509Z 28029G35KT 06/M01 A2977 RMK A01 T00551013  RH  062%=      5-min Rain = 0
KGU1 110510Z 29039G50KT 06/M01 A2977 RMK A01 T00551013  RH  062%=      5-min Rain = 0
KGU1 110511Z 28037G56KT 06/M01 A2977 RMK A01 T00551012  RH  062%=      5-min Rain = 0
KGU1 110512Z 29041G51KT 06/M01 A2978 RMK A01 T00561013  RH  062%=      5-min Rain = 0
KGU1 110513Z 28041G48KT 06/M01 A2977 RMK A01 T00561013  RH  062%=      5-min Rain = 0
KGU1 110514Z 28036G45KT 06/M01 A2977 RMK A01 T00561013  RH  062%=      5-min Rain = 0
KGU1 110515Z 28039G45KT 06/M01 A2977 RMK A01 T00561012  RH  062%=      5-min Rain = 0
KGU1 110516Z 29034G48KT 06/M01 A2977 RMK A01 T00561012  RH  062%=      5-min Rain = 0
KGU1 110517Z 28038G50KT 06/M01 A2977 RMK A01 T00561012  RH  062%=      5-min Rain = 0
KGU1 110518Z 28043G50KT 06/M01 A2977 RMK A01 T00561012  RH  063%=      5-min Rain = 0
KGU1 110519Z 28039G49KT 06/M01 A2978 RMK A01 T00561011  RH  063%=      5-min Rain = 0
KGU1 110520Z 28039G46KT 06/M01 A2977 RMK A01 T00561012  RH  063%=      5-min Rain = 0
KGU1 110521Z 28031G42KT 06/M01 A2977 RMK A01 T00551011  RH  063%=      5-min Rain = 0
KGU1 110522Z 27035G44KT 06/M01 A2977 RMK A01 T00551011  RH  063%=      5-min Rain = 0
KGU1 110523Z 28039G52KT 06/M01 A2977 RMK A01 T00551011  RH  063%=      5-min Rain = 0
KGU1 110524Z 28039G46KT 06/M01 A2977 RMK A01 T00551010  RH  064%=      5-min Rain = 0
KGU1 110525Z 29039G46KT 06/M01 A2977 RMK A01 T00551010  RH  064%=      5-min Rain = 0
KGU1 110526Z 29035G50KT 06/M01 A2977 RMK A01 T00551010  RH  064%=      5-min Rain = 0
KGU1 110527Z 28036G41KT 05/M01 A2977 RMK A01 T00541009  RH  064%=      5-min Rain = 0
KGU1 110528Z 28042G53KT 05/M01 A2978 RMK A01 T00541010  RH  064%=      5-min Rain = 0
KGU1 110529Z 28040G49KT 06/M01 A2977 RMK A01 T00551010  RH  064%=      5-min Rain = 0
KGU1 110530Z 28038G44KT 05/M01 A2977 RMK A01 T00541010  RH  064%=      5-min Rain = 0
KGU1 110531Z 28040G46KT 05/M01 A2977 RMK A01 T00541010  RH  064%=      5-min Rain = 0
KGU1 110532Z 27034G47KT 06/M01 A2976 RMK A01 T00551009  RH  064%=      5-min Rain = 0
KGU1 110533Z 27032G39KT 05/M01 A2977 RMK A01 T00541009  RH  064%=      5-min Rain = 0
KGU1 110534Z 28033G41KT 05/M01 A2977 RMK A01 T00541009  RH  065%=      5-min Rain = 0
KGU1 110535Z 27035G41KT 05/M01 A2976 RMK A01 T00541010  RH  064%=      5-min Rain = 0
KGU1 110536Z 28036G56KT 05/M01 A2976 RMK A01 T00541009  RH  064%=      5-min Rain = 0
KGU1 110537Z 28043G53KT 05/M01 A2976 RMK A01 T00541009  RH  065%=      5-min Rain = 0
KGU1 110538Z 28037G46KT 05/M01 A2977 RMK A01 T00541009  RH  064%=      5-min Rain = 0
KGU1 110539Z 28037G48KT 05/M01 A2976 RMK A01 T00541008  RH  065%=      5-min Rain = 0
KGU1 110540Z 28035G40KT 05/M01 A2976 RMK A01 T00541008  RH  065%=      5-min Rain = 0
KGU1 110541Z 27036G45KT 05/M01 A2976 RMK A01 T00541008  RH  065%=      5-min Rain = 0
KGU1 110542Z 28043G52KT 05/M01 A2976 RMK A01 T00541009  RH  065%=      5-min Rain = 0
KGU1 110543Z 28041G52KT 06/M01 A2976 RMK A01 T00551008  RH  065%=      5-min Rain = 0
KGU1 110544Z 27040G48KT 06/M01 A2975 RMK A01 T00551008  RH  065%=      5-min Rain = 0
KGU1 110545Z 28044G52KT 06/M01 A2976 RMK A01 T00551008  RH  065%=      5-min Rain = 0
KGU1 110546Z 28042KT 06/M01 A2976 RMK A01 T00551008  RH  065%=      5-min Rain = 0
KGU1 110547Z 28041G50KT 06/M01 A2976 RMK A01 T00551008  RH  065%=      5-min Rain = 0
KGU1 110548Z 28043G49KT 06/M01 A2975 RMK A01 T00551009  RH  064%=      5-min Rain = 0
KGU1 110549Z 28039G45KT 06/M01 A2975 RMK A01 T00551009  RH  064%=      5-min Rain = 0
KGU1 110550Z 28039G45KT 06/M01 A2975 RMK A01 T00551008  RH  065%=      5-min Rain = 0
KGU1 110551Z 28042G51KT 05/M01 A2976 RMK A01 T00541008  RH  065%=      5-min Rain = 0
KGU1 110552Z 28038G45KT 05/M01 A2975 RMK A01 T00541007  RH  065%=      5-min Rain = 0
KGU1 110553Z 29043G54KT 05/M01 A2976 RMK A01 T00541008  RH  065%=      5-min Rain = 0
KGU1 110554Z 28038G47KT 05/M01 A2975 RMK A01 T00541008  RH  065%=      5-min Rain = 0
KGU1 110555Z 28041G51KT 05/M01 A2975 RMK A01 T00541008  RH  065%=      5-min Rain = 0
KGU1 110556Z 28035G40KT 05/M01 A2975 RMK A01 T00541007  RH  065%=      5-min Rain = 0
KGU1 110557Z 28045G52KT 05/M01 A2975 RMK A01 T00531008  RH  066%=      5-min Rain = 0
KGU1 110558Z 28041G50KT 05/M01 A2975 RMK A01 T00541008  RH  065%=      5-min Rain = 0
KGU1 110559Z 28039G47KT 05/M01 A2976 RMK A01 T00531008  RH  065%=      5-min Rain = 0

Page generated in 0.088 seconds.